1997 Severe Tropical Cyclone HELINDA:PANCHO (1997013S08101)


IBTrACS version v04r00. Visit IBTrACS website for data access.
Please direct all questions to the IBTrACS Q and A forum

Storm track - Intensity - Wind Radii - Intensity Data - Source Data - All data

Summary Information

Satellite image near maximum intensity
Storm ID 1997013S08101
Start Jan 13 06Z
Max Intensity 125 kt (Jan 22 06Z), 915 mb (Jan 21 07Z)
End Feb 14 12Z
ATCF IDs SH191997
Track status Best track data.

Storm track plot

Map of storm track

Intensity plots

Map of storm track

Radial wind information

Map of storm track

Position and Intensity Table

BASIN ISO_TIME_________ NATURE LAT LON WMO WIND WMO PRES USA WIND REUNION WIND REUNION PRES BOM WIND BOM PRES NEUMANN WIND
degrees north degrees east kts mb kts kts mb kts mb kts
SI 1997-01-13 06:00:00 TS -8.30 100.50 15 15
SI 09:00:00 TS -8.39 100.35 15 15
SI 12:00:00 TS -8.50 100.20 15 15
SI 15:00:00 TS -8.64 100.04 15 15
SI 18:00:00 TS -8.80 99.90 15 15
SI 21:00:00 TS -8.95 99.79 15 15
SI 1997-01-14 00:00:00 TS -9.10 99.70 15 15
SI 03:00:00 TS -9.24 99.61 15 15
SI 06:00:00 TS -9.40 99.50 15 15
SI 09:00:00 TS -9.59 99.36 15 15
SI 12:00:00 TS -9.80 99.20 15 15
SI 15:00:00 TS -10.01 99.02 15 15
SI 18:00:00 TS -10.20 98.80 15 15
SI 21:00:00 TS -10.36 98.50 15 15
SI 1997-01-15 00:00:00 TS -10.50 98.20 15 15
SI 03:00:00 TS -10.64 97.96 15 15
SI 06:00:00 TS -10.80 97.80 15 15
SI 09:00:00 TS -11.00 97.71 17 17
SI 12:00:00 TS -11.20 97.70 20 20
SI 15:00:00 TS -11.36 97.72 20 20
SI 18:00:00 TS -11.50 97.80 20 20
SI 21:00:00 TS -11.62 97.94 20 20
SI 1997-01-16 00:00:00 TS -11.70 98.10 20 20
SI 03:00:00 TS -11.73 98.22 22 22
SI 06:00:00 TS -11.70 98.30 25 25
SI 09:00:00 TS -11.62 98.37 25 25
SI 12:00:00 TS -11.50 98.40 25 25
SI 15:00:00 TS -11.36 98.42 25 25
SI 18:00:00 TS -11.20 98.40 25 25
SI 21:00:00 TS -11.04 98.32 25 25
SI 1997-01-17 00:00:00 TS -10.90 98.20 25 25
SI 03:00:00 TS -10.79 98.06 25 25
SI 06:00:00 TS -10.70 97.90 25 25
SI 09:00:00 TS -10.59 97.75 25 25
SI 12:00:00 TS -10.50 97.60 25 25
SI 15:00:00 TS -10.44 97.44 25 25
SI 18:00:00 TS -10.40 97.30 25 25
SI 21:00:00 TS -10.36 97.19 25 25
SI 1997-01-18 00:00:00 TS -10.30 97.10 25 25
SI 03:00:00 TS -10.21 97.00 25 25
SI 06:00:00 TS -10.10 96.90 25 25
SI 07:00:00 TS -10.01 96.79 20 1006 25 20 1006 25
SI 09:00:00 TS -9.91 96.66 25 25
SI 12:00:00 TS -9.77 96.48 25 25
SI 15:00:00 TS -9.65 96.31 25 25
SI 18:00:00 TS -9.56 96.21 25 25
SI 21:00:00 TS -9.48 96.14 25 25
SI 1997-01-19 00:00:00 TS -9.40 96.10 25 25
SI 03:00:00 TS -9.34 96.06 25 25
SI 06:00:00 TS -9.29 96.05 25 25
SI 07:00:00 TS -9.27 96.06 20 1004 25 20 1004 25
SI 09:00:00 TS -9.24 96.07 27 21 1003 27
SI 12:00:00 TS -9.22 96.09 30 24 1002 30
SI 13:00:00 TS -9.23 96.08 25 1002 30 25 1002 30
SI 15:00:00 TS -9.26 96.04 30 26 1000 30
SI 18:00:00 TS -9.33 95.99 30 29 998 30
SI 19:00:00 TS -9.35 95.99 30 998 30 30 998 30
SI 21:00:00 TS -9.41 96.01 32 31 997 32
SI 1997-01-20 00:00:00 TS -9.52 96.06 35 34 995 35
SI 01:00:00 TS -9.56 96.06 35 995 36 35 995 36
SI 03:00:00 TS -9.64 96.08 40 36 993 40
SI 06:00:00 TS -9.78 96.10 45 39 990 45
SI 07:00:00 TS -9.84 96.11 40 990 46 40 990 46
SI 09:00:00 TS -9.99 96.10 50 46 986 50
SI 10:00:00 TS -10.07 96.11 50 985 51 50 985 51
SI 12:00:00 TS -10.26 96.16 55 53 981 55
SI 13:00:00 TS -10.37 96.19 55 980 56 55 980 56
SI 15:00:00 TS -10.59 96.21 60 58 976 60
SI 16:00:00 TS -10.70 96.20 60 975 61 60 975 61
SI 18:00:00 TS -10.94 96.13 65 66 968 65
SI 19:00:00 TS -11.05 96.09 70 965 67 70 965 67
SI 21:00:00 TS -11.26 95.98 72 76 958 72
SI 22:00:00 TS -11.36 95.91 80 955 75 80 955 75
SI 1997-01-21 00:00:00 TS -11.54 95.70 80 89 945 80
SI 01:00:00 TS -11.63 95.58 95 940 82 95 940 82
SI 03:00:00 TS -11.77 95.29 87 101 930 87
SI 04:00:00 TS -11.83 95.14 105 925 90 105 925 90
SI 06:00:00 TS -11.94 94.83 95 111 918 95
SI 07:00:00 TS -12.00 94.70 115 915 97 115 915 97
SI 09:00:00 TS -12.11 94.44 102 115 915 102
SI 10:00:00 TS -12.16 94.31 115 915 105 115 915 105
SI 12:00:00 TS -12.25 94.02 110 115 915 110
SI 13:00:00 TS -12.29 93.85 115 915 110 115 915 110
SI 15:00:00 TS -12.38 93.50 112 115 915 112
SI 16:00:00 TS -12.42 93.32 115 915 113 115 915 113
SI 18:00:00 TS -12.49 92.96 115 115 915 115
SI 19:00:00 TS -12.53 92.77 115 915 115 115 915 115
SI 21:00:00 TS -12.62 92.40 117 115 915 117
SI 22:00:00 TS -12.66 92.22 115 915 118 115 915 118
SI 1997-01-22 00:00:00 TS -12.76 91.89 120 111 918 120
SI 01:00:00 TS -12.80 91.74 110 920 120 110 920 120
SI 03:00:00 TS -12.90 91.48 122 106 923 122
SI 04:00:00 TS -12.94 91.36 105 925 123 105 925 123
SI 06:00:00 TS -13.02 91.18 125 100 915 101 928 125
SI 07:00:00 TS -13.05 91.11 100 930 125 100 915 100 930 125
SI 09:00:00 TS -13.08 90.96 125 100 915 96 933 125
SI 10:00:00 TS -13.10 90.90 95 935 125 100 915 95 935 125
SI 12:00:00 TS -13.14 90.72 125 100 915 95 938 125
SI 13:00:00 TS -13.16 90.64 95 940 125 99 916 95 940 125
SI 15:00:00 TS -13.19 90.50 125 97 920 91 943 125
SI 16:00:00 TS -13.20 90.43 90 945 125 96 921 90 945 125
SI 18:00:00 TS -13.22 90.32 125 95 925 90 945 125
SI 19:00:00 TS -13.23 90.26 90 945 124 93 926 90 945 124
SI 21:00:00 TS -13.27 90.17 122 90 930 90 945 122
SI 22:00:00 TS -13.28 90.12 90 945 121 88 931 90 945 121
SI 1997-01-23 00:00:00 TS -13.30 90.04 120 85 935 93 941 120
SI 01:00:00 TS -13.31 90.00 120 84 936 95 940 120
SI 03:00:00 TS -13.35 89.91 120 82 940 95 936 120
SI 04:00:00 TS -13.38 89.87 120 81 941 95 935 120
SI 06:00:00 TS -13.40 89.82 80 945 120 80 945 95 935 120
SI 07:00:00 TS -13.41 89.81 120 79 945 95 935 120
SI 09:00:00 TS -13.44 89.77 120 77 947 95 938 120
SI 10:00:00 TS -13.46 89.76 120 76 948 95 940 120
SI 12:00:00 TS -13.49 89.77 75 950 120 75 950 91 943 120
SI 13:00:00 TS -13.51 89.77 118 74 950 90 945 118
SI 15:00:00 TS -13.56 89.78 115 72 952 86 948 115
SI 16:00:00 TS -13.58 89.79 113 71 953 85 950 113
SI 18:00:00 TS -13.66 89.82 70 955 110 70 955 81 953 110
SI 19:00:00 TS -13.70 89.83 80 955 108 69 955 80 955 108
SI 21:00:00 TS -13.78 89.87 105 67 957 76 958 105
SI 22:00:00 TS -13.82 89.89 75 960 103 66 958 75 960 103
SI 1997-01-24 00:00:00 TS -13.89 89.94 100 65 960 68 966 100
SI 01:00:00 TS -13.92 89.97 65 970 99 65 960 65 970 99
SI 03:00:00 TS -13.96 90.02 97 65 960 58 976 97
SI 04:00:00 TS -13.98 90.05 55 980 96 65 960 55 980 96
SI 06:00:00 TS -14.00 90.10 95 65 960 53 981 95
SI 09:00:00 TS -14.01 90.16 90 62 965 50 984 90
SI 10:00:00 TS -14.02 90.18 50 985 88 61 966 50 985 88
SI 12:00:00 TS -14.03 90.23 85 60 970 46 986 85
SI 15:00:00 TS -14.08 90.31 77 60 970 41 989 77
SI 16:00:00 TS -14.10 90.33 40 990 74 60 970 40 990 74
SI 18:00:00 TS -14.13 90.38 70 60 970 40 990 70
SI 21:00:00 TS -14.19 90.46 67 60 970 40 990 67
SI 22:00:00 TS -14.20 90.49 40 990 66 60 970 40 990 66
SI 1997-01-25 00:00:00 TS -14.23 90.53 65 60 970 40 990 65
SI 03:00:00 TS -14.27 90.59 65 57 972 40 990 65
SI 04:00:00 TS -14.28 90.61 40 990 65 56 973 40 990 65
SI 06:00:00 TS -14.31 90.63 65 55 975 40 990 65
SI 09:00:00 TS -14.36 90.67 67 55 975 40 990 67
SI 10:00:00 TS -14.38 90.67 40 990 68 55 975 40 990 68
SI 12:00:00 TS -14.41 90.68 70 55 975 40 990 70
SI 15:00:00 TS -14.45 90.67 72 55 975 40 990 72
SI 16:00:00 TS -14.46 90.66 40 990 73 55 975 40 990 73
SI 18:00:00 TS -14.49 90.66 75 55 975 40 990 75
SI 21:00:00 TS -14.50 90.66 75 57 972 40 990 75
SI 22:00:00 TS -14.50 90.66 40 990 75 58 971 40 990 75
SI 1997-01-26 00:00:00 TS -14.50 90.66 75 60 970 40 990 75
SI 01:00:00 TS -14.50 90.64 40 990 75 60 970 40 990 75
SI 03:00:00 TS -14.50 90.56 75 60 970 40 990 75
SI 04:00:00 TS -14.49 90.53 40 990 75 60 970 40 990 75
SI 06:00:00 TS -14.44 90.53 75 60 970 40 990 75
SI 07:00:00 TS -14.41 90.54 40 990 74 60 970 40 990 74
SI 09:00:00 TS -14.34 90.52 72 60 970 36 993 72
SI 10:00:00 TS -14.30 90.51 35 995 71 60 970 35 995 71
SI 12:00:00 TS -14.18 90.50 70 60 970 33 995 70
SI 15:00:00 TS -13.98 90.50 67 57 972 30 997 67
SI 16:00:00 TS -13.90 90.50 30 998 66 56 973 30 998 66
SI 18:00:00 TS -13.74 90.53 65 55 975 30 998 65
SI 21:00:00 TS -13.49 90.58 60 50 977 30 998 60
SI 22:00:00 TS -13.41 90.60 30 998 58 48 978 30 998 58
SI 1997-01-27 00:00:00 TS -13.25 90.65 55 45 980 30 998 55
SI 03:00:00 TS -13.01 90.73 55 43 982 30 998 55
SI 04:00:00 TS -12.93 90.75 30 998 55 42 983 30 998 55
SI 06:00:00 TS -12.76 90.79 55 42 985 30 998 55
SI 07:00:00 TS -12.65 90.82 30 998 54 40 985 30 998 54
SI 09:00:00 TS -12.41 90.90 52 38 987 30 998 52
SI 10:00:00 TS -12.28 90.95 30 998 51 37 988 30 998 51
SI 12:00:00 TS -12.05 91.00 50 35 990 31 997 50
SI 15:00:00 TS -11.72 91.06 50 35 990 34 995 50
SI 16:00:00 TS -11.62 91.07 35 995 50 35 990 35 995 50
SI 18:00:00 TS -11.38 91.12 50 35 990 36 993 50
SI 21:00:00 TS -11.01 91.19 47 35 990 39 990 47
SI 22:00:00 TS -10.89 91.22 40 990 46 35 990 40 990 46
SI 1997-01-28 00:00:00 TS -10.65 91.29 45 35 990 41 988 45
SI 03:00:00 TS -10.31 91.43 45 35 990 44 985 45
SI 04:00:00 TS -10.21 91.49 45 985 45 35 990 45 985 45
SI 06:00:00 TS -10.04 91.61 45 35 990 45 985 45
SI 09:00:00 TS -9.90 91.81 45 35 990 45 985 45
SI 10:00:00 TS -9.87 91.89 45 985 45 35 990 45 985 45
SI 12:00:00 TS -9.85 92.07 45 35 990 48 983 45
SI 15:00:00 TS -9.88 92.37 45 35 990 53 980 45
SI 16:00:00 TS -9.90 92.48 55 980 45 35 990 55 980 45
SI 18:00:00 TS -9.98 92.66 45 35 990 55 980 45
SI 21:00:00 TS -10.17 92.87 45 35 990 55 980 45
SI 22:00:00 TS -10.25 92.93 55 980 45 35 990 55 980 45
SI 1997-01-29 00:00:00 TS -10.45 93.03 45 35 990 58 976 45
SI 01:00:00 TS -10.54 93.07 60 975 45 35 990 60 975 45
SI 03:00:00 TS -10.75 93.13 45 35 990 60 975 45
SI 04:00:00 TS -10.86 93.15 60 975 45 35 990 60 975 45
SI 06:00:00 TS -11.09 93.19 45 35 990 60 975 45
SI 07:00:00 TS -11.21 93.20 60 975 45 35 990 60 975 45
SI 09:00:00 TS -11.46 93.21 45 35 990 60 975 45
SI 10:00:00 TS -11.59 93.20 60 975 45 35 990 60 975 45
SI 12:00:00 TS -11.87 93.16 45 35 990 60 975 45
SI 15:00:00 TS -12.35 93.09 45 35 990 60 975 45
SI 16:00:00 TS -12.51 93.05 60 975 45 35 990 60 975 45
SI 18:00:00 TS -12.81 92.95 45 35 990 60 975 45
SI 21:00:00 TS -13.19 92.77 45 35 990 60 975 45
SI 22:00:00 TS -13.30 92.69 60 975 45 35 990 60 975 45
SI 1997-01-30 00:00:00 TS -13.52 92.52 45 35 990 60 975 45
SI 01:00:00 TS -13.62 92.43 60 975 45 35 990 60 975 45
SI 03:00:00 TS -13.79 92.22 45 35 990 60 975 45
SI 04:00:00 TS -13.86 92.11 60 975 45 35 990 60 975 45
SI 06:00:00 TS -14.01 91.86 45 35 990 61 973 45
SI 09:00:00 TS -14.27 91.43 45 35 990 64 970 45
SI 10:00:00 TS -14.35 91.28 65 970 45 35 990 65 970 45
SI 12:00:00 TS -14.50 91.01 45 35 990 65 970 45
SI 15:00:00 TS -14.68 90.63 45 35 990 65 970 45
SI 16:00:00 TS -14.73 90.51 65 970 45 35 990 65 970 45
SI 18:00:00 TS -14.83 90.26 45 35 990 66 968 45
SI 21:00:00 TS -14.98 89.86 47 37 989 69 965 47
SI 22:00:00 TS -15.02 89.73 48 38 988 70 965 48
SI 1997-01-31 00:00:00 TS -15.10 89.45 40 988 50 40 988 70 965 50
SI 03:00:00 TS -15.19 89.03 52 42 984 70 965 52
SI 04:00:00 TS -15.21 88.89 53 43 982 70 965 53
SI 06:00:00 TS -15.23 88.65 45 980 55 45 980 70 965 55
SI 07:00:00 TS -15.22 88.54 55 46 979 70 965 55
SI 09:00:00 TS -15.21 88.33 57 48 977 73 961 57
SI 10:00:00 TS -15.20 88.23 58 49 976 75 960 58
SI 12:00:00 TS -15.17 88.04 52 975 60 52 975 75 960 60
SI 15:00:00 TS -15.15 87.78 62 56 972 75 960 62
SI 16:00:00 TS -15.15 87.68 63 57 971 75 960 63
SI 18:00:00 TS -15.15 87.48 60 970 65 60 970 76 958 65
SI 21:00:00 TS -15.16 87.09 70 65 962 79 955 70
SI 22:00:00 TS -15.16 86.96 71 66 959 80 955 71
SI 1997-02-01 00:00:00 TS -15.13 86.70 70 955 75 70 955 83 951 75
SI 01:00:00 TS -15.12 86.59 77 71 953 85 950 77
SI 03:00:00 TS -15.09 86.38 82 75 950 88 946 82
SI 04:00:00 TS -15.08 86.28 85 76 948 90 945 85
SI 06:00:00 TS -15.05 86.10 80 945 90 80 945 93 941 90
SI 07:00:00 TS -15.04 86.01 91 80 945 95 940 91
SI 09:00:00 TS -15.03 85.82 95 80 945 95 940 95
SI 10:00:00 TS -15.03 85.74 96 80 945 95 940 96
SI 12:00:00 TS -15.07 85.59 80 945 100 80 945 95 940 100
SI 15:00:00 TS -15.22 85.38 105 80 945 95 940 105
SI 16:00:00 TS -15.28 85.32 106 80 945 95 940 106
SI 18:00:00 TS -15.39 85.22 80 945 110 80 945 95 938 110
SI 21:00:00 TS -15.54 85.13 112 75 950 95 935 112
SI 22:00:00 TS -15.59 85.11 113 73 951 95 935 113
SI 1997-02-02 00:00:00 TS -15.71 85.08 70 955 115 70 955 95 938 115
SI 01:00:00 TS -15.77 85.07 115 70 955 95 940 115
SI 03:00:00 TS -15.89 85.07 115 70 955 91 943 115
SI 04:00:00 TS -15.95 85.07 115 70 955 90 945 115
SI 06:00:00 TS -16.10 85.09 70 955 115 70 955 86 948 115
SI 07:00:00 TS -16.18 85.09 114 69 956 85 950 114
SI 09:00:00 TS -16.34 85.11 112 67 960 81 953 112
SI 10:00:00 TS -16.42 85.13 111 66 961 80 955 111
SI 12:00:00 TS -16.56 85.15 65 965 110 65 965 76 958 110
SI 15:00:00 TS -16.77 85.21 107 62 967 71 963 107
SI 16:00:00 TS -16.83 85.24 106 61 968 70 965 106
SI 18:00:00 TS -16.95 85.29 60 970 105 60 970 70 965 105
SI 21:00:00 TS -17.12 85.39 102 56 972 70 965 102
SI 22:00:00 TS -17.18 85.43 101 54 973 70 965 101
SI 1997-02-03 00:00:00 TS -17.28 85.52 52 975 100 52 975 68 966 100
SI 03:00:00 TS -17.40 85.67 97 52 975 65 969 97
SI 04:00:00 TS -17.43 85.72 96 52 975 65 970 96
SI 06:00:00 TS -17.49 85.84 52 975 95 52 975 63 971 95
SI 09:00:00 TS -17.58 86.04 90 48 977 60 974 90
SI 12:00:00 TS -17.66 86.25 45 980 85 45 980 58 976 85
SI 15:00:00 TS -17.71 86.48 80 45 980 55 979 80
SI 16:00:00 TS -17.72 86.54 78 45 980 55 980 78
SI 18:00:00 TS -17.76 86.66 45 980 75 45 980 52 981 75
SI 21:00:00 TS -17.83 86.74 70 45 980 48 984 70
SI 1997-02-04 00:00:00 TS -17.95 86.75 45 980 65 45 980 45 986 65
SI 03:00:00 TS -18.12 86.75 60 42 984 41 989 60
SI 04:00:00 TS -18.19 86.74 58 41 985 40 990 58
SI 06:00:00 TS -18.32 86.69 40 988 55 40 988 55
SI 09:00:00 TS -18.49 86.54 52 35 991 52
SI 12:00:00 TS -18.66 86.34 30 995 50 30 995 50
SI 15:00:00 TS -18.88 86.14 47 30 995 47
SI 18:00:00 TS -19.09 85.92 30 995 45 30 995 45
SI 21:00:00 TS -19.26 85.68 42 30 995 42
SI 1997-02-05 00:00:00 TS -19.42 85.40 30 995 40 30 995 40
SI 03:00:00 TS -19.61 85.11 37 27 997 37
SI 04:00:00 TS -19.68 85.01 36 26 998 25 1000 36
SI 06:00:00 TS -19.80 84.80 25 1000 35 25 1000 35
SI 09:00:00 TS -19.98 84.45 35 25 1000 35
SI 12:00:00 TS -20.14 84.06 25 1000 35 25 1000 35
SI 15:00:00 TS -20.29 83.66 35 25 1001 35
SI 18:00:00 TS -20.42 83.22 25 1002 35 25 1002 35
SI 21:00:00 TS -20.51 82.73 32 22 1003 32
SI 1997-02-06 00:00:00 TS -20.57 82.21 20 1004 30 20 1004 30
SI 03:00:00 TS -20.60 81.70 30 20 1004 30
SI 06:00:00 TS -20.58 81.16 20 1004 30 20 1004 30
SI 07:00:00 TS -20.56 80.98 30 25 1000 30
SI 09:00:00 TS -20.51 80.59 30 30
SI 12:00:00 TS -20.39 79.99 30 30
SI 15:00:00 TS -20.25 79.33 27 27
SI 18:00:00 TS -20.08 78.68 25 25
SI 21:00:00 TS -19.91 78.08 25 25
SI 1997-02-07 00:00:00 TS -19.70 77.48 25 25
SI 03:00:00 TS -19.49 76.87 25 25
SI 06:00:00 TS -19.29 76.24 25 25
SI 07:00:00 TS -19.27 75.96 25 25 1000 25
SI 09:00:00 TS -19.19 75.59 25 25
SI 12:00:00 TS -19.00 75.10 25 25
SI 15:00:00 TS -18.85 74.60 25 25
SI 18:00:00 TS -18.70 74.10 25 25
SI 21:00:00 TS -18.52 73.62 25 25
SI 1997-02-08 00:00:00 TS -18.30 73.10 25 25
SI 03:00:00 TS -18.04 72.52 25 25
SI 06:00:00 TS -17.70 71.90 25 25
SI 09:00:00 TS -17.25 71.31 22 22
SI 12:00:00 TS -16.80 70.70 20 20
SI 15:00:00 TS -16.48 70.01 20 20
SI 18:00:00 TS -16.20 69.30 20 20
SI 21:00:00 TS -15.90 68.64 20 20
SI 1997-02-09 00:00:00 TS -15.60 68.00 20 20
SI 03:00:00 TS -15.31 67.39 20 20
SI 06:00:00 TS -15.00 66.80 20 20
SI 09:00:00 TS -14.66 66.20 20 20
SI 12:00:00 TS -14.30 65.60 20 20
SI 15:00:00 TS -13.94 64.99 20 20
SI 18:00:00 TS -13.60 64.40 20 20
SI 21:00:00 TS -13.26 63.85 20 20
SI 1997-02-10 00:00:00 TS -13.00 63.30 20 20
SI 03:00:00 TS -12.85 62.70 20 20
SI 06:00:00 TS -12.80 62.10 20 20
SI 09:00:00 TS -12.78 61.53 20 20
SI 12:00:00 TS -12.80 61.00 20 20
SI 15:00:00 TS -12.80 60.52 20 20
SI 18:00:00 TS -12.80 60.10 20 20
SI 21:00:00 TS -12.79 59.73 17 17
SI 1997-02-11 00:00:00 TS -12.80 59.40 15 15
SI 03:00:00 TS -12.84 59.04 15 15
SI 06:00:00 TS -12.90 58.70 15 15
SI 09:00:00 TS -12.95 58.38 15 15
SI 12:00:00 TS -13.00 58.10 15 15
SI 15:00:00 TS -13.05 57.84 15 15
SI 18:00:00 TS -13.10 57.60 15 15
SI 21:00:00 TS -13.14 57.35 15 15
SI 1997-02-12 00:00:00 TS -13.20 57.10 15 15
SI 03:00:00 TS -13.30 56.85 15 15
SI 06:00:00 TS -13.40 56.60 15 15
SI 09:00:00 TS -13.45 56.34 15 15
SI 12:00:00 TS -13.50 56.10 15 15
SI 15:00:00 TS -13.60 55.89 15 15
SI 18:00:00 TS -13.70 55.70 15 15
SI 21:00:00 TS -13.76 55.49 15 15
SI 1997-02-13 00:00:00 TS -13.80 55.30 15 15
SI 03:00:00 TS -13.86 55.14 15 15
SI 06:00:00 TS -13.90 55.00 15 15
SI 09:00:00 TS -13.91 54.84 15 15
SI 12:00:00 TS -13.90 54.70 15 15
SI 15:00:00 TS -13.90 54.59 15 15
SI 18:00:00 TS -13.90 54.50 15 15
SI 21:00:00 TS -13.90 54.40 15 15
SI 1997-02-14 00:00:00 TS -13.90 54.30 15 15
SI 03:00:00 TS -13.90 54.20 15 15
SI 06:00:00 TS -13.90 54.10 15 15
SI 09:00:00 TS -13.90 54.00 15 15
SI 12:00:00 TS -13.90 53.90 15 15

Source Information

Agency Information
USA bsh191997.txt
TOKYO
CMA
HKO
NEWDELHI
REUNION WMO-Best-Tracks.txt:Line=17854:helinda
BOM IDCKMSTM0S.csv:Line=19193:PANCHO
NADI
WELLINGTON
DS824
TD9636
TD9635
NEUMANN tracks.sh:Storm=1083:PANCHO/HELIN:DA:BSH191997
MLC

All available IBTrACS Data

SEASON BASIN SUBBASIN ISO_TIME_________ NATURE LAT LON WMO WIND WMO PRES WMO AGENCY DIST2LAND LANDFALL IFLAG USA AGENCY USA ATCF_ID USA LAT USA LON USA WIND USA SSHS REUNION LAT REUNION LON REUNION TYPE REUNION WIND REUNION PRES REUNION TNUM REUNION CI BOM LAT BOM LON BOM TYPE BOM WIND BOM PRES BOM CI BOM ROCI BOM EYE BOM POS_METHOD BOM PRES_METHOD NEUMANN LAT NEUMANN LON NEUMANN CLASS NEUMANN WIND STORM SPEED STORM DIR
Year degrees north degrees east kts mb km km degrees north degrees east kts 1 degrees north degrees east kts mb 1 1 degrees north degrees east kts mb 1 nmile nmile degrees north degrees east kts kts degrees
1997 SI WA 1997-01-13 06:00:00 TS -8.30 100.50 499 499 O___________O_ jtwc_sh SH191997 -8.30 100.50 15 -1 -8.30 100.50 TC 15 3 239
1997 SI WA 09:00:00 TS -8.39 100.35 515 515 P___________P_ SH191997 -8.39 100.35 15 -1 -8.39 100.35 TC 15 4 236
1997 SI WA 12:00:00 TS -8.50 100.20 537 537 O___________O_ jtwc_sh SH191997 -8.50 100.20 15 -1 -8.50 100.20 TC 15 4 231
1997 SI WA 15:00:00 TS -8.64 100.04 560 560 P___________P_ SH191997 -8.64 100.04 15 -1 -8.64 100.04 TC 15 4 224
1997 SI WA 18:00:00 TS -8.80 99.90 584 584 O___________O_ jtwc_sh SH191997 -8.80 99.90 15 -1 -8.80 99.90 TC 15 4 219
1997 SI WA 21:00:00 TS -8.95 99.79 600 600 P___________P_ SH191997 -8.95 99.79 15 -1 -8.95 99.79 TC 15 4 213
1997 SI WA 1997-01-14 00:00:00 TS -9.10 99.70 624 624 O___________O_ jtwc_sh SH191997 -9.10 99.70 15 -1 -9.10 99.70 TC 15 3 212
1997 SI WA 03:00:00 TS -9.24 99.61 640 640 P___________P_ SH191997 -9.24 99.61 15 -1 -9.24 99.61 TC 15 4 213
1997 SI WA 06:00:00 TS -9.40 99.50 664 664 O___________O_ jtwc_sh SH191997 -9.40 99.50 15 -1 -9.40 99.50 TC 15 4 214
1997 SI WA 09:00:00 TS -9.59 99.36 688 688 P___________P_ SH191997 -9.59 99.36 15 -1 -9.59 99.36 TC 15 5 216
1997 SI WA 12:00:00 TS -9.80 99.20 720 720 O___________O_ jtwc_sh SH191997 -9.80 99.20 15 -1 -9.80 99.20 TC 15 5 219
1997 SI WA 15:00:00 TS -10.01 99.02 751 751 P___________P_ SH191997 -10.01 99.02 15 -1 -10.01 99.02 TC 15 6 225
1997 SI WA 18:00:00 TS -10.20 98.80 782 782 O___________O_ jtwc_sh SH191997 -10.20 98.80 15 -1 -10.20 98.80 TC 15 6 236
1997 SI WA 21:00:00 TS -10.36 98.50 820 820 P___________P_ SH191997 -10.36 98.50 15 -1 -10.36 98.50 TC 15 7 243
1997 SI WA 1997-01-15 00:00:00 TS -10.50 98.20 848 848 O___________O_ jtwc_sh SH191997 -10.50 98.20 15 -1 -10.50 98.20 TC 15 6 242
1997 SI WA 03:00:00 TS -10.64 97.96 871 871 P___________P_ SH191997 -10.64 97.96 15 -1 -10.64 97.96 TC 15 5 233
1997 SI WA 06:00:00 TS -10.80 97.80 902 902 O___________O_ jtwc_sh SH191997 -10.80 97.80 15 -1 -10.80 97.80 TC 15 4 215
1997 SI WA 09:00:00 TS -11.00 97.71 926 926 P___________P_ SH191997 -11.00 97.71 17 -1 -11.00 97.71 TC 17 4 193
1997 SI WA 12:00:00 TS -11.20 97.70 944 944 O___________O_ jtwc_sh SH191997 -11.20 97.70 20 -1 -11.20 97.70 TC 20 4 0
1997 SI WA 15:00:00 TS -11.36 97.72 962 955 P___________P_ SH191997 -11.36 97.72 20 -1 -11.36 97.72 TC 20 3 163
1997 SI WA 18:00:00 TS -11.50 97.80 964 964 O___________O_ jtwc_sh SH191997 -11.50 97.80 20 -1 -11.50 97.80 TC 20 3 140
1997 SI WA 21:00:00 TS -11.62 97.94 965 953 P___________P_ SH191997 -11.62 97.94 20 -1 -11.62 97.94 TC 20 4 124
1997 SI WA 1997-01-16 00:00:00 TS -11.70 98.10 953 944 O___________O_ jtwc_sh SH191997 -11.70 98.10 20 -1 -11.70 98.10 TC 20 3 112
1997 SI WA 03:00:00 TS -11.73 98.22 944 935 P___________P_ SH191997 -11.73 98.22 22 -1 -11.73 98.22 TC 22 2 90
1997 SI WA 06:00:00 TS -11.70 98.30 935 920 O___________O_ jtwc_sh SH191997 -11.70 98.30 25 -1 -11.70 98.30 TC 25 2 54
1997 SI WA 09:00:00 TS -11.62 98.37 920 913 P___________P_ SH191997 -11.62 98.37 25 -1 -11.62 98.37 TC 25 2 27
1997 SI WA 12:00:00 TS -11.50 98.40 913 907 O___________O_ jtwc_sh SH191997 -11.50 98.40 25 -1 -11.50 98.40 TC 25 3 12
1997 SI WA 15:00:00 TS -11.36 98.42 907 895 P___________P_ SH191997 -11.36 98.42 25 -1 -11.36 98.42 TC 25 3 0
1997 SI WA 18:00:00 TS -11.20 98.40 895 888 O___________O_ jtwc_sh SH191997 -11.20 98.40 25 -1 -11.20 98.40 TC 25 3 343
1997 SI WA 21:00:00 TS -11.04 98.32 886 884 P___________P_ SH191997 -11.04 98.32 25 -1 -11.04 98.32 TC 25 4 327
1997 SI WA 1997-01-17 00:00:00 TS -10.90 98.20 884 882 O___________O_ jtwc_sh SH191997 -10.90 98.20 25 -1 -10.90 98.20 TC 25 4 314
1997 SI WA 03:00:00 TS -10.79 98.06 882 879 P___________P_ SH191997 -10.79 98.06 25 -1 -10.79 98.06 TC 25 4 304
1997 SI WA 06:00:00 TS -10.70 97.90 886 885 O___________O_ jtwc_sh SH191997 -10.70 97.90 25 -1 -10.70 97.90 TC 25 4 303
1997 SI WA 09:00:00 TS -10.59 97.75 885 883 P___________P_ SH191997 -10.59 97.75 25 -1 -10.59 97.75 TC 25 4 304
1997 SI WA 12:00:00 TS -10.50 97.60 890 889 O___________O_ jtwc_sh SH191997 -10.50 97.60 25 -1 -10.50 97.60 TC 25 3 297
1997 SI WA 15:00:00 TS -10.44 97.44 897 897 P___________P_ SH191997 -10.44 97.44 25 -1 -10.44 97.44 TC 25 3 289
1997 SI WA 18:00:00 TS -10.40 97.30 904 904 O___________O_ jtwc_sh SH191997 -10.40 97.30 25 -1 -10.40 97.30 TC 25 3 289
1997 SI WA 21:00:00 TS -10.36 97.19 911 902 P___________P_ SH191997 -10.36 97.19 25 -1 -10.36 97.19 TC 25 2 297
1997 SI WA 1997-01-18 00:00:00 TS -10.30 97.10 909 908 O___________O_ jtwc_sh SH191997 -10.30 97.10 25 -1 -10.30 97.10 TC 25 2 309
1997 SI WA 03:00:00 TS -10.21 97.00 908 899 P___________P_ SH191997 -10.21 97.00 25 -1 -10.21 97.00 TC 25 3 315
1997 SI WA 06:00:00 TS -10.10 96.90 906 905 O___________O_ jtwc_sh SH191997 -10.10 96.90 25 -1 -10.10 96.90 TC 25 4 313
1997 SI WA 07:00:00 TS -10.01 96.79 20 1006 bom 905 905 P_____O_____P_ SH191997 -10.07 96.87 25 -1 -9.60 96.20 20 20 1006 1.00 134 3 5 -10.07 96.87 TC 25 6 309
1997 SI WA 09:00:00 TS -9.91 96.66 905 904 P_____P_____P_ SH191997 -10.00 96.80 25 -1 -9.53 96.08 20 -10.00 96.80 TC 25 5 308
1997 SI WA 12:00:00 TS -9.77 96.48 912 912 O_____P_____O_ jtwc_sh SH191997 -9.90 96.70 25 -1 -9.44 95.91 20 -9.90 96.70 TC 25 4 307
1997 SI WA 15:00:00 TS -9.65 96.31 920 912 P_____P_____P_ SH191997 -9.80 96.59 25 -1 -9.35 95.76 20 -9.80 96.59 TC 25 3 308
1997 SI WA 18:00:00 TS -9.56 96.21 920 913 O_____P_____O_ jtwc_sh SH191997 -9.70 96.50 25 -1 -9.28 95.63 20 -9.70 96.50 TC 25 2 315
1997 SI WA 21:00:00 TS -9.48 96.14 921 914 P_____P_____P_ SH191997 -9.60 96.44 25 -1 -9.24 95.53 20 -9.60 96.44 TC 25 2 324
1997 SI WA 1997-01-19 00:00:00 TS -9.40 96.10 914 903 O_____P_____O_ jtwc_sh SH191997 -9.50 96.40 25 -1 -9.21 95.49 20 -9.50 96.40 TC 25 2 330
1997 SI WA 03:00:00 TS -9.34 96.06 903 903 P_____P_____P_ SH191997 -9.40 96.35 25 -1 -9.22 95.49 20 -9.40 96.35 TC 25 1 343
1997 SI WA 06:00:00 TS -9.29 96.05 903 903 O_____P_____O_ jtwc_sh SH191997 -9.30 96.30 25 -1 -9.27 95.56 20 -9.30 96.30 TC 25 1 0
1997 SI WA 07:00:00 TS -9.27 96.06 20 1004 bom 903 893 P_____O_____P_ SH191997 -9.26 96.29 25 -1 -9.30 95.60 20 20 1004 1.00 134 3 5 -9.26 96.29 TC 25 1 23
1997 SI WA 09:00:00 TS -9.24 96.07 893 893 P_____P_____P_ SH191997 -9.18 96.26 27 -1 -9.36 95.70 20 21 1003 134 -9.18 96.26 TC 27 1 44
1997 SI WA 12:00:00 TS -9.22 96.09 893 893 O_____P_____O_ jtwc_sh SH191997 -9.10 96.20 30 -1 -9.47 95.86 20 24 1002 134 -9.10 96.20 TC 30 0 0
1997 SI WA 13:00:00 TS -9.23 96.08 25 1002 bom 893 893 P_____O_____P_ SH191997 -9.10 96.17 30 -1 -9.50 95.90 20 25 1002 2.00 134 3 5 -9.10 96.17 TC 30 1 231
1997 SI WA 15:00:00 TS -9.26 96.04 907 907 P_____P_____P_ SH191997 -9.12 96.09 30 -1 -9.54 95.94 20 26 1000 134 -9.12 96.09 TC 30 2 220
1997 SI WA 18:00:00 TS -9.33 95.99 907 907 O_____P_____O_ jtwc_sh SH191997 -9.20 96.00 30 -1 -9.58 95.98 20 29 998 134 -9.20 96.00 TC 30 2 209
1997 SI WA 19:00:00 TS -9.35 95.99 30 998 bom 907 918 P_____O_____P_ SH191997 -9.22 95.99 30 -1 -9.60 96.00 20 30 998 2.50 134 3 5 -9.22 95.99 TC 30 2 0
1997 SI WA 21:00:00 TS -9.41 96.01 918 918 P_____P_____P_ SH191997 -9.28 95.99 32 -1 -9.66 96.06 20 31 997 134 -9.28 95.99 TC 32 2 157
1997 SI WA 1997-01-20 00:00:00 TS -9.52 96.06 921 921 O_____P_____O_ jtwc_sh SH191997 -9.40 96.00 35 0 -9.76 96.17 20 34 995 134 -9.40 96.00 TC 35 2 161
1997 SI WA 01:00:00 TS -9.56 96.06 35 995 bom 928 928 P_____O_____P_ SH191997 -9.44 96.00 36 0 -9.80 96.20 30 35 995 3.00 134 3 5 -9.44 96.00 TC 36 2 0
1997 SI WA 03:00:00 TS -9.64 96.08 928 928 P_____P_____P_ SH191997 -9.53 95.99 40 0 -9.85 96.26 30 36 993 134 -9.53 95.99 TC 40 3 171
1997 SI WA 06:00:00 TS -9.78 96.10 944 944 O_____P_____O_ jtwc_sh SH191997 -9.70 96.00 45 0 -9.95 96.31 30 39 990 134 -9.70 96.00 TC 45 3 176
1997 SI WA 07:00:00 TS -9.84 96.11 40 990 bom 944 951 P_____O_____P_ SH191997 -9.77 96.01 46 0 -10.00 96.30 30 40 990 3.00 134 3 5 -9.77 96.01 TC 46 4 0
1997 SI WA 09:00:00 TS -9.99 96.10 959 959 P_____P_____P_ SH191997 -9.92 96.04 50 0 -10.12 96.22 30 46 986 134 -9.92 96.04 TC 50 5 176
1997 SI WA 10:00:00 TS -10.07 96.11 50 985 bom 967 967 P_____O_____P_ SH191997 -10.01 96.06 51 0 -10.20 96.20 30 50 985 3.50 134 3 5 -10.01 96.06 TC 51 6 169
1997 SI WA 12:00:00 TS -10.26 96.16 975 975 O_____P_____O_ jtwc_sh SH191997 -10.20 96.10 55 0 -10.39 96.27 30 53 981 134 -10.20 96.10 TC 55 6 165
1997 SI WA 13:00:00 TS -10.37 96.19 55 980 bom 983 983 P_____O_____P_ SH191997 -10.31 96.13 56 0 -10.50 96.30 30 55 980 4.00 134 3 5 -10.31 96.13 TC 56 7 169
1997 SI WA 15:00:00 TS -10.59 96.21 999 999 P_____P_____P_ SH191997 -10.53 96.19 60 0 -10.70 96.26 30 58 976 151 -10.53 96.19 TC 60 7 0
1997 SI WA 16:00:00 TS -10.70 96.20 60 975 bom 1008 1008 P_____O_____P_ SH191997 -10.66 96.21 61 0 -10.80 96.20 30 60 975 4.00 161 3 5 -10.66 96.21 TC 61 7 192
1997 SI WA 18:00:00 TS -10.94 96.13 1032 1032 O_____P_____O_ jtwc_sh SH191997 -10.90 96.20 65 1 -11.01 96.00 30 66 968 161 -10.90 96.20 TC 65 7 199
1997 SI WA 19:00:00 TS -11.05 96.09 70 965 bom 1040 1048 P_____O_____P_ SH191997 -11.02 96.18 67 1 -11.10 95.90 40 70 965 4.50 161 3 5 -11.02 96.18 TC 67 7 206
1997 SI WA 21:00:00 TS -11.26 95.98 1072 1072 P_____P_____P_ SH191997 -11.27 96.08 72 1 -11.24 95.77 40 76 958 161 -11.27 96.08 TC 72 7 210
1997 SI WA 22:00:00 TS -11.36 95.91 80 955 bom 1088 1088 P_____O_____P_ SH191997 -11.39 96.01 75 1 -11.30 95.70 40 80 955 5.00 161 3 5 -11.39 96.01 TC 75 8 224
1997 SI WA 1997-01-21 00:00:00 TS -11.54 95.70 1111 1111 O_____P_____O_ jtwc_sh SH191997 -11.60 95.80 80 1 -11.43 95.51 40 89 945 161 -11.60 95.80 TC 80 8 230
1997 SI WA 01:00:00 TS -11.63 95.58 95 940 bom 1126 1126 P_____O_____P_ SH191997 -11.69 95.67 82 1 -11.50 95.40 40 95 940 5.50 161 3 5 -11.69 95.67 TC 82 9 241
1997 SI WA 03:00:00 TS -11.77 95.29 1165 1165 P_____P_____P_ SH191997 -11.84 95.34 87 2 -11.63 95.20 40 101 930 161 -11.84 95.34 TC 87 10 244
1997 SI WA 04:00:00 TS -11.83 95.14 105 925 bom 1180 1180 P_____O_____P_ SH191997 -11.90 95.16 90 2 -11.70 95.10 40 105 925 6.00 161 3 5 -11.90 95.16 TC 90 10 249
1997 SI WA 06:00:00 TS -11.94 94.83 1210 1210 O_____P_____O_ jtwc_sh SH191997 -12.00 94.80 95 2 -11.83 94.90 40 111 918 161 -12.00 94.80 TC 95 9 249
1997 SI WA 07:00:00 TS -12.00 94.70 115 915 bom 1226 1226 P_____O_____P_ SH191997 -12.04 94.65 97 3 -11.90 94.80 40 115 915 6.50 161 3 5 -12.04 94.65 TC 97 8 246
1997 SI WA 09:00:00 TS -12.11 94.44 1256 1256 P_____P_____P_ SH191997 -12.11 94.36 102 3 -12.10 94.61 40 115 915 161 -12.11 94.36 TC 102 8 247
1997 SI WA 10:00:00 TS -12.16 94.31 115 915 bom 1272 1272 P_____O_____P_ SH191997 -12.14 94.21 105 3 -12.20 94.50 40 115 915 6.50 161 11 4 5 -12.14 94.21 TC 105 9 252
1997 SI WA 12:00:00 TS -12.25 94.02 1293 1293 O_____P_____O_ jtwc_sh SH191997 -12.20 93.90 110 3 -12.34 94.25 40 115 915 161 -12.20 93.90 TC 110 9 254
1997 SI WA 13:00:00 TS -12.29 93.85 115 915 bom 1308 1313 P_____O_____P_ SH191997 -12.23 93.73 110 3 -12.40 94.10 40 115 915 6.50 161 3 5 -12.23 93.73 TC 110 10 256
1997 SI WA 15:00:00 TS -12.38 93.50 1338 1338 P_____P_____P_ SH191997 -12.29 93.36 112 3 -12.54 93.77 40 115 915 161 -12.29 93.36 TC 112 11 256
1997 SI WA 16:00:00 TS -12.42 93.32 115 915 bom 1348 1348 P_____O_____P_ SH191997 -12.33 93.18 113 4 -12.60 93.60 40 115 915 6.50 161 3 5 -12.33 93.18 TC 113 11 258
1997 SI WA 18:00:00 TS -12.49 92.96 1373 1373 O_____P_____O_ jtwc_sh SH191997 -12.40 92.80 115 4 -12.67 93.27 40 115 915 161 -12.40 92.80 TC 115 11 258
1997 SI WA 19:00:00 TS -12.53 92.77 115 915 bom 1384 1389 P_____O_____P_ SH191997 -12.44 92.61 115 4 -12.70 93.10 40 115 915 6.50 161 3 5 -12.44 92.61 TC 115 11 257
1997 SI WA 21:00:00 TS -12.62 92.40 1415 1415 P_____P_____P_ SH191997 -12.54 92.22 117 4 -12.77 92.77 40 115 915 161 -12.54 92.22 TC 117 11 256
1997 SI WA 22:00:00 TS -12.66 92.22 115 915 bom 1436 1436 P_____O_____P_ SH191997 -12.59 92.04 118 4 -12.80 92.60 40 115 915 6.50 161 3 5 -12.59 92.04 TC 118 10 255
1997 SI WA 1997-01-22 00:00:00 TS -12.76 91.89 1463 1463 O_____P_____O_ jtwc_sh SH191997 -12.70 91.70 120 4 -12.87 92.26 40 111 918 178 -12.70 91.70 TC 120 10 254
1997 SI WA 01:00:00 TS -12.80 91.74 110 920 bom 1475 1475 P_____O_____P_ SH191997 -12.76 91.56 120 4 -12.90 92.10 40 110 920 6.50 188 5 4 5 -12.76 91.56 TC 120 8 250
1997 SI WA 03:00:00 TS -12.90 91.48 1496 1496 P_____P_____P_ SH191997 -12.86 91.30 122 4 -12.97 91.83 40 106 923 188 -12.86 91.30 TC 122 8 249
1997 SI WA 04:00:00 TS -12.94 91.36 105 925 bom 1502 1517 P_____O_____P_ SH191997 -12.92 91.20 123 4 -13.00 91.70 40 105 925 6.00 188 4 4 5 -12.92 91.20 TC 123 6 247
1997 SI WA 06:00:00 TS -13.02 91.18 1523 1523 O____OP_____O_ jtwc_sh SH191997 -13.00 91.00 125 4 -13.00 91.70 4 100 915 6.00 6.50 -13.07 91.43 40 101 928 188 -13.00 91.00 TC 125 5 246
1997 SI WA 07:00:00 TS -13.05 91.11 100 930 bom 1530 1539 P____PO_____P_ SH191997 -13.03 90.90 125 4 -13.04 91.60 4 100 915 -13.10 91.30 40 100 930 6.00 188 3 4 5 -13.03 90.90 TC 125 5 255
1997 SI WA 09:00:00 TS -13.08 90.96 1545 1545 P____PP_____P_ SH191997 -13.06 90.72 125 4 -13.11 91.41 4 100 915 -13.10 91.09 40 96 933 188 -13.06 90.72 TC 125 4 257
1997 SI WA 10:00:00 TS -13.10 90.90 95 935 bom 1551 1551 P____PO_____P_ SH191997 -13.08 90.64 125 4 -13.14 91.31 4 100 915 -13.10 91.00 40 95 935 5.50 188 3 5 -13.08 90.64 TC 125 5 255
1997 SI WA 12:00:00 TS -13.14 90.72 1564 1564 O____OP_____O_ jtwc_sh SH191997 -13.10 90.50 125 4 -13.20 91.10 4 100 915 5.50 6.50 -13.17 90.79 40 95 938 188 -13.10 90.50 TC 125 5 255
1997 SI WA 13:00:00 TS -13.16 90.64 95 940 bom 1579 1579 P____PO_____P_ SH191997 -13.12 90.44 125 4 -13.23 90.99 4 99 916 -13.20 90.70 40 95 940 5.50 188 3 5 -13.12 90.44 TC 125 4 257
1997 SI WA 15:00:00 TS -13.19 90.50 1586 1586 P____PP_____P_ SH191997 -13.15 90.33 125 4 -13.27 90.78 4 97 920 -13.21 90.56 40 91 943 188 -13.15 90.33 TC 125 4 259
1997 SI WA 16:00:00 TS -13.20 90.43 90 945 bom 1592 1592 P____PO_____P_ SH191997 -13.17 90.28 125 4 -13.28 90.68 4 96 921 -13.20 90.50 40 90 945 5.50 188 3 5 -13.17 90.28 TC 125 4 260
1997 SI WA 18:00:00 TS -13.22 90.32 1599 1599 O____OP_____O_ jtwc_sh SH191997 -13.20 90.20 125 4 -13.30 90.50 4 95 925 5.50 6.00 -13.19 90.37 40 90 945 188 -13.20 90.20 TC 125 3 260
1997 SI WA 19:00:00 TS -13.23 90.26 90 945 bom 1599 1599 P____PO_____P_ SH191997 -13.22 90.16 124 4 -13.30 90.43 4 93 926 -13.20 90.30 40 90 945 5.50 188 3 5 -13.22 90.16 TC 124 3 253
1997 SI WA 21:00:00 TS -13.27 90.17 1614 1614 P____PP_____P_ SH191997 -13.25 90.09 122 4 -13.30 90.32 4 90 930 -13.27 90.17 40 90 945 188 -13.25 90.09 TC 122 3 251
1997 SI WA 22:00:00 TS -13.28 90.12 90 945 bom 1621 1621 P____PO_____P_ SH191997 -13.27 90.06 121 4 -13.30 90.28 4 88 931 -13.30 90.10 40 90 945 5.50 188 3 5 -13.27 90.06 TC 121 3 256
1997 SI WA 1997-01-23 00:00:00 TS -13.30 90.04 1627 1627 O____OP_____O_ jtwc_sh SH191997 -13.30 90.00 120 4 -13.30 90.20 4 85 935 5.00 5.50 -13.30 89.97 40 93 941 188 -13.30 90.00 TC 120 3 257
1997 SI MM 01:00:00 TS -13.31 90.00 1627 1627 P____PO_____P_ SH191997 -13.32 89.96 120 4 -13.31 90.16 4 84 936 -13.30 89.90 40 95 940 5.50 188 3 5 -13.32 89.96 TC 120 3 247
1997 SI MM 03:00:00 TS -13.35 89.91 1643 1643 P____PP_____P_ SH191997 -13.35 89.89 120 4 -13.35 90.09 4 82 940 -13.37 89.75 40 95 936 188 -13.35 89.89 TC 120 3 243
1997 SI MM 04:00:00 TS -13.38 89.87 1643 1643 P____PO_____P_ SH191997 -13.37 89.86 120 4 -13.37 90.05 4 81 941 -13.40 89.70 40 95 935 5.50 188 9 4 5 -13.37 89.86 TC 120 2 240
1997 SI MM 06:00:00 TS -13.40 89.82 80 945 reunion 1649 1649 O____OP_____O_ jtwc_sh SH191997 -13.40 89.80 120 4 -13.40 90.00 4 80 945 5.00 5.50 -13.40 89.69 40 95 935 188 -13.40 89.80 TC 120 1 241
1997 SI MM 07:00:00 TS -13.41 89.81 1649 1649 P____PO_____P_ SH191997 -13.42 89.78 120 4 -13.40 89.97 4 79 945 -13.40 89.70 40 95 935 5.50 188 9 4 5 -13.42 89.78 TC 120 1 226
1997 SI MM 09:00:00 TS -13.44 89.77 1649 1649 P____PP_____P_ SH191997 -13.45 89.74 120 4 -13.39 89.93 4 77 947 -13.46 89.69 40 95 938 188 -13.45 89.74 TC 120 1 212
1997 SI MM 10:00:00 TS -13.46 89.76 1658 1658 P____PO_____P_ SH191997 -13.47 89.72 120 4 -13.39 89.92 4 76 948 -13.50 89.70 40 95 940 5.50 188 4 5 -13.47 89.72 TC 120 1 198
1997 SI MM 12:00:00 TS -13.49 89.77 75 950 reunion 1658 1658 O____OP_____O_ jtwc_sh SH191997 -13.50 89.70 120 4 -13.40 89.90 4 75 950 4.50 5.00 -13.57 89.76 40 91 943 188 -13.50 89.70 TC 120 1 0
1997 SI MM 13:00:00 TS -13.51 89.77 1658 1658 P____PO_____P_ SH191997 -13.51 89.69 118 4 -13.42 89.89 4 74 950 -13.60 89.80 40 90 945 5.50 188 4 5 -13.51 89.69 TC 118 1 158
1997 SI MM 15:00:00 TS -13.56 89.78 1667 1667 P____PP_____P_ SH191997 -13.54 89.68 115 4 -13.48 89.89 4 72 952 -13.66 89.87 40 86 948 188 -13.54 89.68 TC 115 1 0
1997 SI MM 16:00:00 TS -13.58 89.79 1667 1667 P____PO_____P_ SH191997 -13.56 89.69 113 4 -13.51 89.89 4 71 953 -13.70 89.90 40 85 950 5.00 188 4 5 -13.56 89.69 TC 113 2 158
1997 SI MM 18:00:00 TS -13.66 89.82 70 955 reunion 1676 1676 O____OP_____O_ jtwc_sh SH191997 -13.60 89.70 110 3 -13.60 89.90 4 70 955 4.50 5.00 -13.84 89.97 40 81 953 188 -13.60 89.70 TC 110 3 162
1997 SI MM 19:00:00 TS -13.70 89.83 80 955 bom 1676 1669 P____PO_____P_ SH191997 -13.63 89.71 108 3 -13.65 89.91 4 69 955 -13.90 90.00 40 80 955 5.00 188 4 5 -13.63 89.71 TC 108 3 158
1997 SI MM 21:00:00 TS -13.78 89.87 1678 1678 P____PP_____P_ SH191997 -13.70 89.73 105 3 -13.75 89.95 4 67 957 -13.97 90.07 40 76 958 188 -13.70 89.73 TC 105 3 153
1997 SI MM 22:00:00 TS -13.82 89.89 75 960 bom 1678 1678 P____PO_____P_ SH191997 -13.74 89.75 103 3 -13.80 89.97 4 66 958 -14.00 90.10 40 75 960 4.50 188 4 5 -13.74 89.75 TC 103 3 150
1997 SI MM 1997-01-24 00:00:00 TS -13.89 89.94 1687 1681 O____OP_____O_ jtwc_sh SH191997 -13.80 89.80 100 3 -13.90 90.00 4 65 960 4.50 4.50 -14.07 90.17 40 68 966 188 -13.80 89.80 TC 100 3 143
1997 SI MM 01:00:00 TS -13.92 89.97 65 970 bom 1681 1681 P____PO_____P_ SH191997 -13.83 89.84 99 3 -13.94 90.00 4 65 960 -14.10 90.20 40 65 970 4.50 188 3 5 -13.83 89.84 TC 99 2 131
1997 SI WA 03:00:00 TS -13.96 90.02 1690 1690 P____PP_____P_ SH191997 -13.87 89.94 97 3 -14.01 90.00 4 65 960 -14.11 90.21 40 58 976 188 -13.87 89.94 TC 97 2 124
1997 SI WA 04:00:00 TS -13.98 90.05 55 980 bom 1690 1684 P____PO_____P_ SH191997 -13.88 90.00 96 3 -14.05 90.00 4 65 960 -14.10 90.20 30 55 980 4.00 188 3 5 -13.88 90.00 TC 96 2 117
1997 SI WA 06:00:00 TS -14.00 90.10 1684 1677 O____OP_____O_ jtwc_sh SH191997 -13.90 90.10 95 2 -14.10 90.00 4 65 960 4.50 4.50 -14.10 90.20 30 53 981 188 -13.90 90.10 TC 95 1 108
1997 SI WA 09:00:00 TS -14.01 90.16 1677 1677 P____PP_____P_ SH191997 -13.90 90.21 90 2 -14.16 90.04 4 62 965 -14.09 90.19 30 50 984 188 -13.90 90.21 TC 90 1 103
1997 SI WA 10:00:00 TS -14.02 90.18 50 985 bom 1677 1677 P____PO_____P_ SH191997 -13.90 90.24 88 2 -14.17 90.06 4 61 966 -14.10 90.20 30 50 985 3.50 188 3 5 -13.90 90.24 TC 88 1 106
1997 SI WA 12:00:00 TS -14.03 90.23 1677 1671 O____OP_____O_ jtwc_sh SH191997 -13.90 90.30 85 2 -14.20 90.10 3 60 970 4.50 4.50 -14.13 90.23 30 46 986 188 -13.90 90.30 TC 85 2 118
1997 SI WA 15:00:00 TS -14.08 90.31 1680 1680 P____PP_____P_ SH191997 -13.94 90.40 77 1 -14.25 90.15 3 60 970 -14.18 90.28 30 41 989 188 -13.94 90.40 TC 77 2 124
1997 SI WA 16:00:00 TS -14.10 90.33 40 990 bom 1680 1674 P____PO_____P_ SH191997 -13.96 90.43 74 1 -14.27 90.17 3 60 970 -14.20 90.30 30 40 990 3.00 188 3 5 -13.96 90.43 TC 74 2 128
1997 SI WA 18:00:00 TS -14.13 90.38 1674 1674 O____OP_____O_ jtwc_sh SH191997 -14.00 90.50 70 1 -14.30 90.20 3 60 970 4.00 4.50 -14.23 90.33 30 40 990 188 -14.00 90.50 TC 70 2 125
1997 SI WA 21:00:00 TS -14.19 90.46 1677 1677 P____PP_____P_ SH191997 -14.05 90.61 67 1 -14.36 90.25 3 60 970 -14.28 90.38 30 40 990 188 -14.05 90.61 TC 67 2 125
1997 SI WA 22:00:00 TS -14.20 90.49 40 990 bom 1677 1677 P____PO_____P_ SH191997 -14.07 90.64 66 1 -14.37 90.27 3 60 970 -14.30 90.40 30 40 990 3.00 188 3 5 -14.07 90.64 TC 66 2 127
1997 SI WA 1997-01-25 00:00:00 TS -14.23 90.53 1677 1671 O____OP_____O_ jtwc_sh SH191997 -14.10 90.70 65 1 -14.40 90.30 3 60 970 4.00 4.50 -14.33 90.43 30 40 990 188 -14.10 90.70 TC 65 1 125
1997 SI WA 03:00:00 TS -14.27 90.59 1680 1680 P____PP_____P_ SH191997 -14.15 90.77 65 1 -14.40 90.35 3 57 972 -14.38 90.48 30 40 990 188 -14.15 90.77 TC 65 1 124
1997 SI WA 04:00:00 TS -14.28 90.61 40 990 bom 1680 1680 P____PO_____P_ SH191997 -14.17 90.78 65 1 -14.40 90.37 3 56 973 -14.40 90.50 30 40 990 3.00 188 3 5 -14.17 90.78 TC 65 1 132
1997 SI WA 06:00:00 TS -14.31 90.63 1680 1674 O____OP_____O_ jtwc_sh SH191997 -14.20 90.80 65 1 -14.40 90.40 3 55 975 3.50 4.00 -14.43 90.54 30 40 990 196 -14.20 90.80 TC 65 1 141
1997 SI WA 09:00:00 TS -14.36 90.67 1684 1684 P____PP_____P_ SH191997 -14.25 90.82 67 1 -14.45 90.45 3 55 975 -14.48 90.59 30 40 990 210 -14.25 90.82 TC 67 1 148
1997 SI WA 10:00:00 TS -14.38 90.67 40 990 bom 1684 1684 P____PO_____P_ SH191997 -14.27 90.81 68 1 -14.47 90.47 3 55 975 -14.50 90.60 30 40 990 3.00 215 3 5 -14.27 90.81 TC 68 1 153
1997 SI WA 12:00:00 TS -14.41 90.68 1684 1684 O____OP_____O_ jtwc_sh SH191997 -14.30 90.80 70 1 -14.50 90.50 3 55 975 3.50 4.00 -14.53 90.60 30 40 990 215 -14.30 90.80 TC 70 1 197
1997 SI WA 15:00:00 TS -14.45 90.67 1693 1693 P____PP_____P_ SH191997 -14.36 90.76 72 1 -14.51 90.55 3 55 975 -14.58 90.60 30 40 990 215 -14.36 90.76 TC 72 1 189
1997 SI WA 16:00:00 TS -14.46 90.66 40 990 bom 1693 1693 P____PO_____P_ SH191997 -14.37 90.74 73 1 -14.51 90.57 3 55 975 -14.60 90.60 30 40 990 3.00 215 3 5 -14.37 90.74 TC 73 1 212
1997 SI WA 18:00:00 TS -14.49 90.66 1693 1693 O____OP_____O_ jtwc_sh SH191997 -14.40 90.70 75 1 -14.50 90.60 3 55 975 4.00 4.00 -14.64 90.63 30 40 990 215 -14.40 90.70 TC 75 0 163
1997 SI WA 21:00:00 TS -14.50 90.66 1693 1693 P____PP_____P_ SH191997 -14.41 90.66 75 1 -14.50 90.65 3 57 972 -14.69 90.69 30 40 990 215 -14.41 90.66 TC 75 0 0
1997 SI WA 22:00:00 TS -14.50 90.66 40 990 bom 1693 1693 P____PO_____P_ SH191997 -14.41 90.64 75 1 -14.50 90.67 3 58 971 -14.70 90.70 30 40 990 3.00 215 3 5 -14.41 90.64 TC 75 0 0
1997 SI WA 1997-01-26 00:00:00 TS -14.50 90.66 1693 1693 O____OP_____O_ jtwc_sh SH191997 -14.40 90.60 75 1 -14.50 90.70 3 60 970 4.50 4.50 -14.71 90.73 30 40 990 215 -14.40 90.60 TC 75 0 0
1997 SI WA 01:00:00 TS -14.50 90.64 40 990 bom 1699 1699 P____PO_____P_ SH191997 -14.41 90.57 75 1 -14.51 90.72 3 60 970 -14.70 90.70 30 40 990 3.00 215 3 5 -14.41 90.57 TC 75 2 273
1997 SI WA 03:00:00 TS -14.50 90.56 1699 1699 P____PP_____P_ SH191997 -14.42 90.50 75 1 -14.52 90.76 3 60 970 -14.65 90.48 30 40 990 215 -14.42 90.50 TC 75 2 279
1997 SI WA 04:00:00 TS -14.49 90.53 40 990 bom 1705 1696 P____PO_____P_ SH191997 -14.42 90.46 75 1 -14.52 90.77 3 60 970 -14.60 90.40 30 40 990 3.00 215 3 5 -14.42 90.46 TC 75 1 349
1997 SI WA 06:00:00 TS -14.44 90.53 1696 1696 O____OP_____O_ jtwc_sh SH191997 -14.40 90.40 75 1 -14.50 90.80 3 60 970 4.00 4.50 -14.47 90.52 30 40 990 215 -14.40 90.40 TC 75 2 0
1997 SI WA 07:00:00 TS -14.41 90.54 40 990 bom 1696 1686 P____PO_____P_ SH191997 -14.38 90.38 74 1 -14.49 90.80 3 60 970 -14.40 90.60 30 40 990 3.00 215 3 5 -14.38 90.38 TC 74 2 346
1997 SI WA 09:00:00 TS -14.34 90.52 1686 1686 P____PP_____P_ SH191997 -14.33 90.33 72 1 -14.44 90.80 3 60 970 -14.27 90.61 30 36 993 215 -14.33 90.33 TC 72 2 348
1997 SI WA 10:00:00 TS -14.30 90.51 35 995 bom 1686 1677 P____PO_____P_ SH191997 -14.29 90.32 71 1 -14.40 90.80 3 60 970 -14.20 90.60 30 35 995 3.00 215 3 5 -14.29 90.32 TC 71 3 352
1997 SI WA 12:00:00 TS -14.18 90.50 1677 1659 O____OP_____O_ jtwc_sh SH191997 -14.20 90.30 70 1 -14.30 90.80 3 60 970 3.50 4.50 -14.04 90.60 30 33 995 206 -14.20 90.30 TC 70 4 355
1997 SI WA 15:00:00 TS -13.98 90.50 1659 1649 P____PP_____P_ SH191997 -14.02 90.28 67 1 -14.08 90.84 3 57 972 -13.78 90.60 30 30 997 192 -14.02 90.28 TC 67 4 0
1997 SI WA 16:00:00 TS -13.90 90.50 30 998 bom 1649 1640 P____PO_____P_ SH191997 -13.95 90.28 66 1 -13.99 90.86 3 56 973 -13.70 90.60 20 30 998 2.50 188 3 5 -13.95 90.28 TC 66 5 4
1997 SI WA 18:00:00 TS -13.74 90.53 1631 1607 O____OP_____O_ jtwc_sh SH191997 -13.80 90.30 65 1 -13.80 90.90 3 55 975 3.50 4.00 -13.56 90.60 20 30 998 188 -13.80 90.30 TC 65 5 9
1997 SI WA 21:00:00 TS -13.49 90.58 1607 1597 P____PP_____P_ SH191997 -13.56 90.38 60 0 -13.50 90.96 3 50 977 -13.36 90.60 20 30 998 188 -13.56 90.38 TC 60 5 11
1997 SI WA 22:00:00 TS -13.41 90.60 30 998 bom 1597 1588 P____PO_____P_ SH191997 -13.47 90.41 58 0 -13.40 90.97 3 48 978 -13.30 90.60 20 30 998 2.50 188 3 5 -13.47 90.41 TC 58 5 16
1997 SI WA 1997-01-27 00:00:00 TS -13.25 90.65 1573 1555 O____OP_____O_ jtwc_sh SH191997 -13.30 90.50 55 0 -13.20 91.00 3 45 980 3.00 3.50 -13.18 90.60 20 30 998 188 -13.30 90.50 TC 55 5 18
1997 SI WA 03:00:00 TS -13.01 90.73 1555 1539 P____PP_____P_ SH191997 -13.06 90.65 55 0 -12.95 91.01 3 43 982 -12.98 90.60 20 30 998 188 -13.06 90.65 TC 55 5 17
1997 SI WA 04:00:00 TS -12.93 90.75 30 998 bom 1539 1530 P____PO_____P_ SH191997 -12.97 90.70 55 0 -12.87 91.01 3 42 983 -12.90 90.60 20 30 998 2.50 188 3 5 -12.97 90.70 TC 55 5 14
1997 SI WA 06:00:00 TS -12.76 90.79 1530 1521 O____OP_____O_ jtwc_sh SH191997 -12.80 90.80 55 0 -12.70 91.00 3 42 985 3.00 3.50 -12.73 90.57 20 30 998 188 -12.80 90.80 TC 55 6 14
1997 SI WA 07:00:00 TS -12.65 90.82 30 998 bom 1521 1488 P____PO_____P_ SH191997 -12.71 90.84 54 0 -12.61 91.00 3 40 985 -12.60 90.60 20 30 998 2.50 188 3 5 -12.71 90.84 TC 54 7 17
1997 SI WA 09:00:00 TS -12.41 90.90 1488 1479 P____PP_____P_ SH191997 -12.51 90.91 52 0 -12.41 91.01 3 38 987 -12.21 90.79 20 30 998 188 -12.51 90.91 TC 52 8 18
1997 SI WA 10:00:00 TS -12.28 90.95 30 998 bom 1479 1455 P____PO_____P_ SH191997 -12.41 90.94 51 0 -12.31 91.01 3 37 988 -12.00 90.90 20 30 998 2.50 188 3 5 -12.41 90.94 TC 51 8 15
1997 SI WA 12:00:00 TS -12.05 91.00 1446 1413 O____OP_____O_ jtwc_sh SH191997 -12.20 91.00 50 0 -12.10 91.00 3 35 990 3.00 3.00 -11.69 91.01 20 31 997 188 -12.20 91.00 TC 50 7 11
1997 SI WA 15:00:00 TS -11.72 91.06 1413 1404 P____PP_____P_ SH191997 -11.91 91.11 50 0 -11.75 90.93 3 35 990 -11.32 91.08 20 34 995 188 -11.91 91.11 TC 50 7 9
1997 SI WA 16:00:00 TS -11.62 91.07 35 995 bom 1404 1386 P____PO_____P_ SH191997 -11.82 91.14 50 0 -11.63 90.91 3 35 990 -11.20 91.10 30 35 995 3.00 188 3 5 -11.82 91.14 TC 50 7 9
1997 SI WA 18:00:00 TS -11.38 91.12 1386 1345 O____OP_____O_ jtwc_sh SH191997 -11.60 91.20 50 0 -11.40 90.90 3 35 990 3.00 3.00 -10.91 91.17 30 36 993 188 -11.60 91.20 TC 50 7 11
1997 SI WA 21:00:00 TS -11.01 91.19 1345 1336 P____PP_____P_ SH191997 -11.21 91.24 47 0 -11.09 91.01 3 35 990 -10.51 91.27 30 39 990 188 -11.21 91.24 TC 47 8 11
1997 SI WA 22:00:00 TS -10.89 91.22 40 990 bom 1336 1312 P____PO_____P_ SH191997 -11.08 91.26 46 0 -10.99 91.06 3 35 990 -10.40 91.30 30 40 990 3.00 188 3 5 -11.08 91.26 TC 46 7 16
1997 SI WA 1997-01-28 00:00:00 TS -10.65 91.29 1312 1271 O____OP_____O_ jtwc_sh SH191997 -10.80 91.30 45 0 -10.80 91.20 3 35 990 3.00 3.00 -10.21 91.37 30 41 988 188 -10.80 91.30 TC 45 7 20
1997 SI WA 03:00:00 TS -10.31 91.43 1271 1255 P____PP_____P_ SH191997 -10.36 91.41 45 0 -10.47 91.44 3 35 990 -10.03 91.47 30 44 985 188 -10.36 91.41 TC 45 7 23
1997 SI WA 04:00:00 TS -10.21 91.49 45 985 bom 1255 1240 P____PO_____P_ SH191997 -10.23 91.47 45 0 -10.37 91.52 3 35 990 -10.00 91.50 30 45 985 3.00 188 3 5 -10.23 91.47 TC 45 6 33
1997 SI WA 06:00:00 TS -10.04 91.61 1231 1208 O____OP_____O_ jtwc_sh SH191997 -10.00 91.60 45 0 -10.20 91.70 3 35 990 3.00 3.00 -9.96 91.53 30 45 985 188 -10.00 91.60 TC 45 5 46
1997 SI WA 09:00:00 TS -9.90 91.81 1208 1201 P____PP_____P_ SH191997 -9.78 91.87 45 0 -10.05 91.94 3 35 990 -9.98 91.57 30 45 985 188 -9.78 91.87 TC 45 5 60
1997 SI WA 10:00:00 TS -9.87 91.89 45 985 bom 1201 1187 P____PO_____P_ SH191997 -9.73 91.98 45 0 -10.03 92.03 3 35 990 -10.00 91.60 30 45 985 3.00 188 3 5 -9.73 91.98 TC 45 5 80
1997 SI WA 12:00:00 TS -9.85 92.07 1187 1166 O____OP_____O_ jtwc_sh SH191997 -9.70 92.20 45 0 -10.00 92.20 3 35 990 3.00 3.00 -10.02 91.67 30 48 983 188 -9.70 92.20 TC 45 6 90
1997 SI WA 15:00:00 TS -9.88 92.37 1166 1159 P____PP_____P_ SH191997 -9.74 92.57 45 0 -9.95 92.52 3 35 990 -10.07 91.83 30 53 980 188 -9.74 92.57 TC 45 6 97
1997 SI WA 16:00:00 TS -9.90 92.48 55 980 bom 1159 1153 P____PO_____P_ SH191997 -9.78 92.69 45 0 -9.95 92.62 3 35 990 -10.10 91.90 30 55 980 4.00 188 3 5 -9.78 92.69 TC 45 6 111
1997 SI WA 18:00:00 TS -9.98 92.66 1155 1149 O____OP_____O_ jtwc_sh SH191997 -9.90 92.90 45 0 -10.00 92.80 3 35 990 3.00 3.00 -10.13 92.04 30 55 980 188 -9.90 92.90 TC 45 6 124
1997 SI WA 21:00:00 TS -10.17 92.87 1160 1160 P____PP_____P_ SH191997 -10.12 93.10 45 0 -10.20 92.99 3 35 990 -10.23 92.30 30 55 980 188 -10.12 93.10 TC 45 6 136
1997 SI WA 22:00:00 TS -10.25 92.93 55 980 bom 1169 1163 P____PO_____P_ SH191997 -10.21 93.14 45 0 -10.30 93.04 3 35 990 -10.30 92.40 30 55 980 4.00 188 3 5 -10.21 93.14 TC 45 6 151
1997 SI WA 1997-01-29 00:00:00 TS -10.45 93.03 1172 1172 O____OP_____O_ jtwc_sh SH191997 -10.40 93.20 45 0 -10.50 93.10 3 35 990 3.00 3.00 -10.48 92.61 30 58 976 188 -10.40 93.20 TC 45 6 155
1997 SI WA 01:00:00 TS -10.54 93.07 60 975 bom 1176 1185 P____PO_____P_ SH191997 -10.49 93.23 45 0 -10.59 93.12 3 35 990 -10.60 92.70 30 60 975 4.00 188 3 5 -10.49 93.23 TC 45 6 162
1997 SI WA 03:00:00 TS -10.75 93.13 1204 1204 P____PP_____P_ SH191997 -10.68 93.27 45 0 -10.78 93.13 3 35 990 -10.86 92.84 30 60 975 188 -10.68 93.27 TC 45 7 166
1997 SI WA 04:00:00 TS -10.86 93.15 60 975 bom 1213 1208 P____PO_____P_ SH191997 -10.78 93.29 45 0 -10.89 93.12 3 35 990 -11.00 92.90 30 60 975 4.00 188 3 5 -10.78 93.29 TC 45 7 172
1997 SI WA 06:00:00 TS -11.09 93.19 1227 1227 O____OP_____O_ jtwc_sh SH191997 -11.00 93.30 45 0 -11.10 93.10 3 35 990 3.00 3.00 -11.27 93.05 30 60 975 188 -11.00 93.30 TC 45 7 172
1997 SI WA 07:00:00 TS -11.21 93.20 60 975 bom 1236 1236 P____PO_____P_ SH191997 -11.11 93.31 45 0 -11.21 93.09 3 35 990 -11.40 93.10 30 60 975 4.00 188 3 5 -11.11 93.31 TC 45 7 0
1997 SI WA 09:00:00 TS -11.46 93.21 1265 1265 P____PP_____P_ SH191997 -11.36 93.32 45 0 -11.43 93.06 3 35 990 -11.67 93.12 30 60 975 188 -11.36 93.32 TC 45 8 184
1997 SI WA 10:00:00 TS -11.59 93.20 60 975 bom 1275 1275 P____PO_____P_ SH191997 -11.50 93.32 45 0 -11.55 93.05 3 35 990 -11.80 93.10 30 60 975 4.00 188 3 5 -11.50 93.32 TC 45 8 185
1997 SI WA 12:00:00 TS -11.87 93.16 1304 1304 O____OP_____O_ jtwc_sh SH191997 -11.80 93.30 45 0 -11.80 93.00 3 35 990 3.00 3.00 -12.07 93.06 30 60 975 188 -11.80 93.30 TC 45 9 188
1997 SI WA 15:00:00 TS -12.35 93.09 1348 1348 P____PP_____P_ SH191997 -12.36 93.24 45 0 -12.20 92.92 3 35 990 -12.47 92.95 30 60 975 188 -12.36 93.24 TC 45 10 190
1997 SI WA 16:00:00 TS -12.51 93.05 60 975 bom 1373 1373 P____PO_____P_ SH191997 -12.55 93.20 45 0 -12.34 92.89 3 35 990 -12.60 92.90 30 60 975 4.00 188 3 5 -12.55 93.20 TC 45 10 196
1997 SI WA 18:00:00 TS -12.81 92.95 1403 1403 O____OP_____O_ jtwc_sh SH191997 -12.90 93.10 45 0 -12.60 92.80 3 35 990 3.00 3.00 -12.83 92.81 30 60 975 188 -12.90 93.10 TC 45 9 202
1997 SI WA 21:00:00 TS -13.19 92.77 1453 1453 P____PP_____P_ SH191997 -13.30 92.89 45 0 -12.96 92.63 3 35 990 -13.18 92.66 30 60 975 188 -13.30 92.89 TC 45 8 207
1997 SI WA 22:00:00 TS -13.30 92.69 60 975 bom 1468 1468 P____PO_____P_ SH191997 -13.41 92.80 45 0 -13.08 92.56 3 35 990 -13.30 92.60 30 60 975 4.00 188 3 5 -13.41 92.80 TC 45 8 216
1997 SI WA 1997-01-30 00:00:00 TS -13.52 92.52 1498 1498 O____OP_____O_ jtwc_sh SH191997 -13.60 92.60 45 0 -13.30 92.40 3 35 990 3.00 3.00 -13.57 92.48 30 60 975 188 -13.60 92.60 TC 45 8 219
1997 SI WA 01:00:00 TS -13.62 92.43 60 975 bom 1513 1513 P____PO_____P_ SH191997 -13.68 92.50 45 0 -13.41 92.31 3 35 990 -13.70 92.40 30 60 975 4.00 188 3 5 -13.68 92.50 TC 45 8 227
1997 SI WA 03:00:00 TS -13.79 92.22 1543 1543 P____PP_____P_ SH191997 -13.81 92.28 45 0 -13.61 92.12 3 35 990 -13.91 92.21 30 60 975 188 -13.81 92.28 TC 45 8 231
1997 SI WA 04:00:00 TS -13.86 92.11 60 975 bom 1558 1558 P____PO_____P_ SH191997 -13.87 92.16 45 0 -13.71 92.02 3 35 990 -14.00 92.10 30 60 975 4.00 188 3 5 -13.87 92.16 TC 45 8 237
1997 SI WA 06:00:00 TS -14.01 91.86 1578 1578 O____OP_____O_ jtwc_sh SH191997 -14.00 91.90 45 0 -13.90 91.80 3 35 990 3.00 3.00 -14.16 91.83 30 61 973 188 -14.00 91.90 TC 45 9 238
1997 SI WA 09:00:00 TS -14.27 91.43 1634 1634 P____PP_____P_ SH191997 -14.26 91.45 45 0 -14.21 91.46 3 35 990 -14.35 91.36 30 64 970 188 -14.26 91.45 TC 45 10 239
1997 SI WA 10:00:00 TS -14.35 91.28 65 970 bom 1649 1649 P____PO_____P_ SH191997 -14.34 91.30 45 0 -14.32 91.35 3 35 990 -14.40 91.20 40 65 970 4.50 188 3 5 -14.34 91.30 TC 45 9 241
1997 SI WA 12:00:00 TS -14.50 91.01 1676 1676 O____OP_____O_ jtwc_sh SH191997 -14.50 91.00 45 0 -14.50 91.10 3 35 990 3.00 3.00 -14.51 90.93 40 65 970 188 -14.50 91.00 TC 45 9 243
1997 SI WA 15:00:00 TS -14.68 90.63 1718 1718 P____PP_____P_ SH191997 -14.67 90.64 45 0 -14.71 90.71 3 35 990 -14.65 90.53 40 65 970 188 -14.67 90.64 TC 45 8 245
1997 SI WA 16:00:00 TS -14.73 90.51 65 970 bom 1724 1724 P____PO_____P_ SH191997 -14.72 90.53 45 0 -14.78 90.57 3 35 990 -14.70 90.40 40 65 970 4.50 188 3 5 -14.72 90.53 TC 45 8 248
1997 SI WA 18:00:00 TS -14.83 90.26 1745 1745 O____OP_____O_ jtwc_sh SH191997 -14.80 90.30 45 0 -14.90 90.30 3 35 990 3.00 3.00 -14.81 90.13 40 66 968 188 -14.80 90.30 TC 45 8 248
1997 SI MM 21:00:00 TS -14.98 89.86 1787 1787 P____PP_____P_ SH191997 -14.91 89.91 47 0 -15.13 89.91 3 37 989 -14.96 89.73 40 69 965 188 -14.91 89.91 TC 47 8 249
1997 SI MM 22:00:00 TS -15.02 89.73 1800 1800 P____PO_____P_ SH191997 -14.94 89.77 48 0 -15.20 89.77 3 38 988 -15.00 89.60 40 70 965 4.50 188 3 5 -14.94 89.77 TC 48 8 253
1997 SI MM 1997-01-31 00:00:00 TS -15.10 89.45 40 988 reunion 1821 1821 O____OP_____O_ jtwc_sh SH191997 -15.00 89.50 50 0 -15.30 89.50 3 40 988 3.00 3.00 -15.09 89.32 40 70 965 188 -15.00 89.50 TC 50 8 256
1997 SI MM 03:00:00 TS -15.19 89.03 1862 1862 P____PP_____P_ SH191997 -15.12 89.09 52 0 -15.35 89.03 3 42 984 -15.18 88.92 40 70 965 188 -15.12 89.09 TC 52 8 258
1997 SI MM 04:00:00 TS -15.21 88.89 1868 1868 P____PO_____P_ SH191997 -15.15 88.95 53 0 -15.34 88.87 3 43 982 -15.20 88.80 40 70 965 4.50 188 3 5 -15.15 88.95 TC 53 7 264
1997 SI MM 06:00:00 TS -15.23 88.65 45 980 reunion 1881 1881 O____OP_____O_ jtwc_sh SH191997 -15.20 88.70 55 0 -15.30 88.60 3 45 980 3.50 3.50 -15.20 88.60 40 70 965 170 -15.20 88.70 TC 55 7 267
1997 SI MM 07:00:00 TS -15.22 88.54 1894 1894 P____PO_____P_ SH191997 -15.21 88.59 55 0 -15.27 88.49 3 46 979 -15.20 88.50 40 70 965 4.50 161 3 4 5 -15.21 88.59 TC 55 6 273
1997 SI MM 09:00:00 TS -15.21 88.33 1908 1908 P____PP_____P_ SH191997 -15.21 88.38 57 0 -15.20 88.32 3 48 977 -15.20 88.23 40 73 961 161 -15.21 88.38 TC 57 6 275
1997 SI MM 10:00:00 TS -15.20 88.23 1915 1915 P____PO_____P_ SH191997 -15.21 88.29 58 0 -15.16 88.24 3 49 976 -15.20 88.10 40 75 960 4.50 161 3 5 -15.21 88.29 TC 58 6 278
1997 SI MM 12:00:00 TS -15.17 88.04 52 975 reunion 1928 1928 O____OP_____O_ jtwc_sh SH191997 -15.20 88.10 60 0 -15.10 88.10 3 52 975 4.00 4.00 -15.17 87.88 40 75 960 161 -15.20 88.10 TC 60 5 276
1997 SI MM 15:00:00 TS -15.15 87.78 1933 1933 P____PP_____P_ SH191997 -15.20 87.82 62 0 -15.08 87.87 3 56 972 -15.11 87.59 40 75 960 161 -15.20 87.82 TC 62 5 273
1997 SI MM 16:00:00 TS -15.15 87.68 1940 1940 P____PO_____P_ SH191997 -15.20 87.72 63 0 -15.09 87.78 3 57 971 -15.10 87.50 40 75 960 4.50 161 3 5 -15.20 87.72 TC 63 6 270
1997 SI MM 18:00:00 TS -15.15 87.48 60 970 reunion 1963 1963 O____OP_____O_ jtwc_sh SH191997 -15.20 87.50 65 1 -15.10 87.60 3 60 970 4.50 4.50 -15.11 87.30 40 76 958 161 -15.20 87.50 TC 65 7 269
1997 SI MM 21:00:00 TS -15.16 87.09 1991 1991 P____PP_____P_ SH191997 -15.21 87.05 70 1 -15.11 87.26 3 65 962 -15.11 87.00 40 79 955 161 -15.21 87.05 TC 70 8 270
1997 SI MM 22:00:00 TS -15.16 86.96 1998 2004 P____PO_____P_ SH191997 -15.21 86.89 71 1 -15.11 87.14 3 66 959 -15.10 86.90 40 80 955 5.00 161 3 5 -15.21 86.89 TC 71 8 274
1997 SI MM 1997-02-01 00:00:00 TS -15.13 86.70 70 955 reunion 2012 2012 O____OP_____O_ jtwc_sh SH191997 -15.20 86.60 75 1 -15.10 86.90 4 70 955 5.00 5.00 -15.03 86.70 40 83 951 161 -15.20 86.60 TC 75 7 277
1997 SI MM 01:00:00 TS -15.12 86.59 2019 2019 P____PO_____P_ SH191997 -15.19 86.48 77 1 -15.09 86.79 4 71 953 -15.00 86.60 40 85 950 5.00 161 3 5 -15.19 86.48 TC 77 6 278
1997 SI MM 03:00:00 TS -15.09 86.38 2034 2034 P____PP_____P_ SH191997 -15.15 86.27 82 1 -15.06 86.58 4 75 950 -14.99 86.40 40 88 946 161 -15.15 86.27 TC 82 6 278
1997 SI MM 04:00:00 TS -15.08 86.28 2041 2041 P____PO_____P_ SH191997 -15.13 86.18 85 2 -15.04 86.49 4 76 948 -15.00 86.30 40 90 945 5.50 161 5 4 5 -15.13 86.18 TC 85 5 278
1997 SI MM 06:00:00 TS -15.05 86.10 80 945 reunion 2048 2048 O____OP_____O_ jtwc_sh SH191997 -15.10 86.00 90 2 -15.00 86.30 4 80 945 5.50 5.50 -14.99 86.10 40 93 941 178 -15.10 86.00 TC 90 5 278
1997 SI MM 07:00:00 TS -15.04 86.01 2056 2056 P____PO_____P_ SH191997 -15.09 85.91 91 2 -14.97 86.21 4 80 945 -15.00 86.00 40 95 940 5.50 188 8 4 5 -15.09 85.91 TC 91 5 274
1997 SI MM 09:00:00 TS -15.03 85.82 2071 2071 P____PP_____P_ SH191997 -15.07 85.73 95 2 -14.91 86.03 4 80 945 -15.06 85.79 40 95 940 188 -15.07 85.73 TC 95 5 270
1997 SI MM 10:00:00 TS -15.03 85.74 2078 2078 P____PO_____P_ SH191997 -15.07 85.65 96 3 -14.89 85.95 4 80 945 -15.10 85.70 40 95 940 5.50 188 5 4 5 -15.07 85.65 TC 96 5 259
1997 SI MM 12:00:00 TS -15.07 85.59 80 945 reunion 2094 2094 O____OP_____O_ jtwc_sh SH191997 -15.10 85.50 100 3 -14.90 85.80 4 80 945 5.00 5.50 -15.19 85.54 40 95 940 188 -15.10 85.50 TC 100 5 242
1997 SI MM 15:00:00 TS -15.22 85.38 2117 2117 P____PP_____P_ SH191997 -15.23 85.26 105 3 -15.06 85.64 4 80 945 -15.35 85.35 40 95 940 188 -15.23 85.26 TC 105 5 231
1997 SI MM 16:00:00 TS -15.28 85.32 2133 2133 P____PO_____P_ SH191997 -15.28 85.20 106 3 -15.14 85.59 4 80 945 -15.40 85.30 40 95 940 5.50 188 3 5 -15.28 85.20 TC 106 5 222
1997 SI MM 18:00:00 TS -15.39 85.22 80 945 reunion 2148 2148 O____OP_____O_ jtwc_sh SH191997 -15.40 85.10 110 3 -15.30 85.50 4 80 945 5.00 5.50 -15.46 85.19 40 95 938 188 -15.40 85.10 TC 110 4 216
1997 SI MM 21:00:00 TS -15.54 85.13 2164 2164 P____PP_____P_ SH191997 -15.55 85.06 112 3 -15.49 85.34 4 75 950 -15.55 85.04 40 95 935 188 -15.55 85.06 TC 112 3 210
1997 SI MM 22:00:00 TS -15.59 85.11 2171 2171 P____PO_____P_ SH191997 -15.60 85.07 113 4 -15.56 85.29 4 73 951 -15.60 85.00 40 95 935 5.50 188 3 5 -15.60 85.07 TC 113 4 195
1997 SI MM 1997-02-02 00:00:00 TS -15.71 85.08 70 955 reunion 2179 2179 O____OP_____O_ jtwc_sh SH191997 -15.70 85.10 115 4 -15.70 85.20 4 70 955 4.50 5.00 -15.73 84.92 40 95 938 188 -15.70 85.10 TC 115 4 190
1997 SI MM 01:00:00 TS -15.77 85.07 2187 2187 P____PO_____P_ SH191997 -15.75 85.11 115 4 -15.78 85.16 4 70 955 -15.80 84.90 40 95 940 5.50 188 3 5 -15.75 85.11 TC 115 4 184
1997 SI MM 03:00:00 TS -15.89 85.07 2195 2195 P____PP_____P_ SH191997 -15.84 85.15 115 4 -15.94 85.08 4 70 955 -15.93 84.89 40 91 943 188 -15.84 85.15 TC 115 4 175
1997 SI MM 04:00:00 TS -15.95 85.07 2203 2203 P____PO_____P_ SH191997 -15.89 85.17 115 4 -16.03 85.05 4 70 955 -16.00 84.90 40 90 945 5.50 188 11 4 5 -15.89 85.17 TC 115 4 0
1997 SI MM 06:00:00 TS -16.10 85.09 70 955 reunion 2211 2211 O____OP_____O_ jtwc_sh SH191997 -16.00 85.20 115 4 -16.20 85.00 4 70 955 4.50 5.00 -16.19 84.95 40 86 948 188 -16.00 85.20 TC 115 5 0
1997 SI MM 07:00:00 TS -16.18 85.09 2219 2219 P____PO_____P_ SH191997 -16.06 85.20 114 4 -16.29 84.97 4 69 956 -16.30 85.00 40 85 950 5.00 188 11 4 5 -16.06 85.20 TC 114 5 0
1997 SI MM 09:00:00 TS -16.34 85.11 2227 2227 P____PP_____P_ SH191997 -16.19 85.20 112 3 -16.46 84.93 4 67 960 -16.51 85.13 40 81 953 188 -16.19 85.20 TC 112 5 173
1997 SI MM 10:00:00 TS -16.42 85.13 2235 2235 P____PO_____P_ SH191997 -16.26 85.20 111 3 -16.54 84.91 4 66 961 -16.60 85.20 40 80 955 5.00 188 11 4 5 -16.26 85.20 TC 111 5 171
1997 SI MM 12:00:00 TS -16.56 85.15 65 965 reunion 2244 2244 O____OP_____O_ jtwc_sh SH191997 -16.40 85.20 110 3 -16.70 84.90 4 65 965 4.00 4.50 -16.76 85.32 40 76 958 188 -16.40 85.20 TC 110 4 167
1997 SI MM 15:00:00 TS -16.77 85.21 2260 2260 P____PP_____P_ SH191997 -16.61 85.24 107 3 -16.91 84.92 4 62 967 -16.95 85.46 40 71 963 188 -16.61 85.24 TC 107 4 163
1997 SI MM 16:00:00 TS -16.83 85.24 2260 2260 P____PO_____P_ SH191997 -16.67 85.25 106 3 -16.97 84.94 4 61 968 -17.00 85.50 40 70 965 4.50 188 3 5 -16.67 85.25 TC 106 4 156
1997 SI MM 18:00:00 TS -16.95 85.29 60 970 reunion 2269 2269 O____OP_____O_ jtwc_sh SH191997 -16.80 85.30 105 3 -17.10 85.00 3 60 970 4.00 4.50 -17.11 85.57 40 70 965 188 -16.80 85.30 TC 105 4 153
1997 SI MM 21:00:00 TS -17.12 85.39 2270 2270 P____PP_____P_ SH191997 -16.96 85.39 102 3 -17.31 85.12 3 56 972 -17.25 85.67 40 70 965 188 -16.96 85.39 TC 102 4 150
1997 SI MM 22:00:00 TS -17.18 85.43 2279 2272 P____PO_____P_ SH191997 -17.01 85.42 101 3 -17.38 85.17 3 54 973 -17.30 85.70 40 70 965 4.50 188 3 5 -17.01 85.42 TC 101 4 142
1997 SI MM 1997-02-03 00:00:00 TS -17.28 85.52 52 975 reunion 2280 2273 O____OP_____O_ jtwc_sh SH191997 -17.10 85.50 100 3 -17.50 85.30 3 52 975 3.50 4.00 -17.41 85.76 40 68 966 188 -17.10 85.50 TC 100 4 134
1997 SI MM 03:00:00 TS -17.40 85.67 2275 2275 P____PP_____P_ SH191997 -17.21 85.64 97 3 -17.62 85.53 3 52 975 -17.56 85.86 40 65 969 188 -17.21 85.64 TC 97 4 128
1997 SI MM 04:00:00 TS -17.43 85.72 2275 2268 P____PO_____P_ SH191997 -17.24 85.69 96 3 -17.65 85.61 3 52 975 -17.60 85.90 40 65 970 4.50 188 3 5 -17.24 85.69 TC 96 4 119
1997 SI MM 06:00:00 TS -17.49 85.84 52 975 reunion 2276 2262 O____OP_____O_ jtwc_sh SH191997 -17.30 85.80 95 2 -17.70 85.80 3 52 975 3.50 4.00 -17.67 85.97 40 63 971 188 -17.30 85.80 TC 95 4 116
1997 SI MM 09:00:00 TS -17.58 86.04 2271 2258 P____PP_____P_ SH191997 -17.41 85.99 90 2 -17.76 86.10 3 48 977 -17.76 86.09 40 60 974 188 -17.41 85.99 TC 90 4 112
1997 SI MM 12:00:00 TS -17.66 86.25 45 980 reunion 2259 2246 O____OP_____O_ jtwc_sh SH191997 -17.50 86.20 85 2 -17.80 86.40 3 45 980 3.50 3.50 -17.82 86.22 40 58 976 188 -17.50 86.20 TC 85 4 107
1997 SI MM 15:00:00 TS -17.71 86.48 2246 2246 P____PP_____P_ SH191997 -17.54 86.42 80 1 -17.86 86.71 3 45 980 -17.88 86.35 40 55 979 188 -17.54 86.42 TC 80 4 104
1997 SI MM 16:00:00 TS -17.72 86.54 2246 2240 P____PO_____P_ SH191997 -17.56 86.49 78 1 -17.87 86.79 3 45 980 -17.90 86.40 30 55 980 4.00 188 3 5 -17.56 86.49 TC 78 4 108
1997 SI MM 18:00:00 TS -17.76 86.66 45 980 reunion 2242 2242 O____OP_____O_ jtwc_sh SH191997 -17.60 86.60 75 1 -17.90 86.90 3 45 980 3.00 3.50 -17.94 86.53 30 52 981 188 -17.60 86.60 TC 75 3 121
1997 SI MM 21:00:00 TS -17.83 86.74 2242 2242 P____PP_____P_ SH191997 -17.72 86.68 70 1 -17.88 86.86 3 45 980 -18.01 86.73 30 48 984 188 -17.72 86.68 TC 70 2 154
1997 SI MM 1997-02-04 00:00:00 TS -17.95 86.75 45 980 reunion 2251 2251 O____OP_____O_ jtwc_sh SH191997 -17.90 86.70 65 1 -17.90 86.70 3 45 980 2.50 3.50 -18.08 86.90 30 45 986 188 -17.90 86.70 TC 65 3 0
1997 SI MM 03:00:00 TS -18.12 86.75 2262 2262 P____PP_____P_ SH191997 -18.14 86.73 60 0 -18.03 86.56 3 42 984 -18.17 86.99 30 41 989 188 -18.14 86.73 TC 60 4 184
1997 SI MM 04:00:00 TS -18.19 86.74 2277 2277 P____PO_____P_ SH191997 -18.23 86.73 58 0 -18.08 86.51 3 41 985 -18.20 87.00 30 40 990 3.00 188 4 5 -18.23 86.73 TC 58 4 198
1997 SI MM 06:00:00 TS -18.32 86.69 40 988 reunion 2286 2286 O____OP_____O_ jtwc_sh SH191997 -18.40 86.70 55 0 -18.20 86.40 3 40 988 2.50 3.00 -18.28 86.94 30 -18.40 86.70 TC 55 4 213
1997 SI MM 09:00:00 TS -18.49 86.54 2317 2317 P____PP_____P_ SH191997 -18.60 86.57 52 0 -18.34 86.25 3 35 991 -18.41 86.76 30 -18.60 86.57 TC 52 5 224
1997 SI MM 12:00:00 TS -18.66 86.34 30 995 reunion 2348 2348 O____OP_____O_ jtwc_sh SH191997 -18.80 86.40 50 0 -18.50 86.10 2 30 995 2.00 2.50 -18.55 86.47 30 -18.80 86.40 TC 50 5 224
1997 SI MM 15:00:00 TS -18.88 86.14 2378 2378 P____PP_____P_ SH191997 -19.06 86.26 47 0 -18.69 85.95 2 30 995 -18.71 86.10 30 -19.06 86.26 TC 47 6 223
1997 SI MM 18:00:00 TS -19.09 85.92 30 995 reunion 2409 2409 O____OP_____O_ jtwc_sh SH191997 -19.30 86.10 45 0 -18.90 85.80 2 30 995 2.00 2.50 -18.87 85.67 30 -19.30 86.10 TC 45 6 229
1997 SI MM 21:00:00 TS -19.26 85.68 2439 2439 P____PP_____P_ SH191997 -19.46 85.91 42 0 -19.10 85.67 2 30 995 -19.03 85.20 30 -19.46 85.91 TC 42 6 236
1997 SI MM 1997-02-05 00:00:00 TS -19.42 85.40 30 995 reunion 2467 2467 O____OP_____O_ jtwc_sh SH191997 -19.60 85.70 40 0 -19.30 85.50 2 30 995 2.00 2.50 -19.20 84.72 30 -19.60 85.70 TC 40 6 237
1997 SI MM 03:00:00 TS -19.61 85.11 2504 2504 P____PP_____P_ SH191997 -19.80 85.49 37 0 -19.50 85.22 2 27 997 -19.35 84.25 30 -19.80 85.49 TC 37 7 236
1997 SI MM 04:00:00 TS -19.68 85.01 2520 2520 P____PO_____P_ SH191997 -19.87 85.40 36 0 -19.57 85.12 2 26 998 -19.40 84.10 20 25 1000 2.00 215 3 5 -19.87 85.40 TC 36 7 237
1997 SI MM 06:00:00 TS -19.80 84.80 25 1000 reunion 2541 2541 O____OP_____O_ jtwc_sh SH191997 -20.00 85.20 35 0 -19.70 84.90 2 25 1000 2.00 2.00 -19.51 83.90 20 -20.00 85.20 TC 35 7 240
1997 SI MM 09:00:00 TS -19.98 84.45 2579 2579 P____PP_____P_ SH191997 -20.17 84.78 35 0 -19.90 84.63 2 25 1000 -19.69 83.62 20 -20.17 84.78 TC 35 8 244
1997 SI MM 12:00:00 TS -20.14 84.06 25 1000 reunion 2614 2614 O____OP_____O_ jtwc_sh SH191997 -20.30 84.30 35 0 -20.10 84.30 2 25 1000 1.50 2.00 -19.86 83.35 20 -20.30 84.30 TC 35 8 247
1997 SI MM 15:00:00 TS -20.29 83.66 2658 2645 P____PP_____P_ SH191997 -20.41 83.87 35 0 -20.32 83.83 2 25 1001 -20.02 83.08 20 -20.41 83.87 TC 35 8 251
1997 SI MM 18:00:00 TS -20.42 83.22 25 1002 reunion 2645 2602 O____OP_____O_ jtwc_sh SH191997 -20.50 83.40 35 0 -20.50 83.30 2 25 1002 1.50 2.00 -20.16 82.79 20 -20.50 83.40 TC 35 9 256
1997 SI MM 21:00:00 TS -20.51 82.73 2592 2539 P____PP_____P_ SH191997 -20.56 82.83 32 -1 -20.63 82.78 2 22 1003 -20.28 82.49 20 -20.56 82.83 TC 32 10 261
1997 SI MM 1997-02-06 00:00:00 TS -20.57 82.21 20 1004 reunion 2539 2487 O____OP_____O_ jtwc_sh SH191997 -20.60 82.20 30 -1 -20.70 82.30 2 20 1004 1.50 1.50 -20.36 82.15 20 -20.60 82.20 TC 30 10 265
1997 SI MM 03:00:00 TS -20.60 81.70 2487 2435 P____PP_____P_ SH191997 -20.62 81.56 30 -1 -20.73 81.91 2 20 1004 -20.41 81.78 20 -20.62 81.56 TC 30 10 269
1997 SI MM 06:00:00 TS -20.58 81.16 20 1004 reunion 2435 2415 O____OP_____O_ jtwc_sh SH191997 -20.60 80.90 30 -1 -20.70 81.50 6 20 1004 1.50 1.50 -20.41 81.35 20 -20.60 80.90 TC 30 10 273
1997 SI MM 07:00:00 TS -20.56 80.98 2415 2374 P____PO_____P_ SH191997 -20.58 80.68 30 -1 -20.68 81.34 6 -20.40 81.20 20 25 1000 2.00 215 3 5 -20.58 80.68 TC 30 11 278
1997 SI MM 09:00:00 TS -20.51 80.59 2374 2312 P____PP_____P_ SH191997 -20.52 80.25 30 -1 -20.62 81.00 6 -20.36 80.87 20 -20.52 80.25 TC 30 11 280
1997 SI MM 12:00:00 TS -20.39 79.99 reunion 2312 2250 O____OP_____O_ jtwc_sh SH191997 -20.40 79.60 30 -1 -20.50 80.40 6 9.90 -20.25 80.34 20 -20.40 79.60 TC 30 12 282
1997 SI MM 15:00:00 TS -20.25 79.33 2241 2179 P____PP_____P_ SH191997 -20.26 78.93 27 -1 -20.37 79.71 6 -20.10 79.76 20 -20.26 78.93 TC 27 13 284
1997 SI MM 18:00:00 TS -20.08 78.68 reunion 2179 2118 O____OP_____O_ jtwc_sh SH191997 -20.10 78.30 25 -1 -20.20 79.00 6 9.90 -19.91 79.14 20 -20.10 78.30 TC 25 12 286
1997 SI MM 21:00:00 TS -19.91 78.08 2118 2058 P____PP_____P_ SH191997 -19.96 77.74 25 -1 -20.02 78.36 6 -19.69 78.49 20 -19.96 77.74 TC 25 12 288
1997 SI MM 1997-02-07 00:00:00 TS -19.70 77.48 reunion 2058 1997 O____OP_____O_ jtwc_sh SH191997 -19.80 77.20 25 -1 -19.80 77.80 6 9.90 -19.44 77.82 20 -19.80 77.20 TC 25 12 290
1997 SI MM 03:00:00 TS -19.49 76.87 1997 1937 P____PP_____P_ SH191997 -19.61 76.64 25 -1 -19.52 77.36 6 -19.17 77.13 20 -19.61 76.64 TC 25 12 289
1997 SI MM 06:00:00 TS -19.29 76.24 reunion 1927 1906 O____OP_____O_ jtwc_sh SH191997 -19.40 76.10 25 -1 -19.20 77.00 6 9.90 -18.89 76.43 20 -19.40 76.10 TC 25 13 285
1997 SI MM 07:00:00 TS -19.27 75.96 1906 1865 P_____O_____P_ SH191997 -19.33 75.93 25 -1 6 -18.80 76.20 20 25 1000 2.00 215 3 5 -19.33 75.93 TC 25 12 279
1997 SI MM 09:00:00 TS -19.19 75.59 1865 1816 P___________P_ SH191997 -19.19 75.59 25 -1 6 20 -19.19 75.59 TC 25 10 289
1997 SI MM 12:00:00 TS -19.00 75.10 1816 1765 O___________O_ jtwc_sh SH191997 -19.00 75.10 25 -1 20 -19.00 75.10 TC 25 10 290
1997 SI MM 15:00:00 TS -18.85 74.60 1767 1717 P___________P_ SH191997 -18.85 74.60 25 -1 20 -18.85 74.60 TC 25 10 288
1997 SI MM 18:00:00 TS -18.70 74.10 1717 1668 O___________O_ jtwc_sh SH191997 -18.70 74.10 25 -1 20 -18.70 74.10 TC 25 10 289
1997 SI MM 21:00:00 TS -18.52 73.62 1668 1620 P___________P_ SH191997 -18.52 73.62 25 -1 20 -18.52 73.62 TC 25 10 293
1997 SI MM 1997-02-08 00:00:00 TS -18.30 73.10 1620 1562 O___________O_ jtwc_sh SH191997 -18.30 73.10 25 -1 20 -18.30 73.10 TC 25 12 295
1997 SI MM 03:00:00 TS -18.04 72.52 1564 1510 P___________P_ SH191997 -18.04 72.52 25 -1 20 -18.04 72.52 TC 25 13 298
1997 SI MM 06:00:00 TS -17.70 71.90 1510 1459 O___________O_ jtwc_sh SH191997 -17.70 71.90 25 -1 20 -17.70 71.90 TC 25 14 305
1997 SI MM 09:00:00 TS -17.25 71.31 1462 1414 P___________P_ SH191997 -17.25 71.31 22 -1 -17.25 71.31 TC 22 15 308
1997 SI MM 12:00:00 TS -16.80 70.70 1414 1355 O___________O_ jtwc_sh SH191997 -16.80 70.70 20 -1 -16.80 70.70 TC 20 15 302
1997 SI MM 15:00:00 TS -16.48 70.01 1355 1297 P___________P_ SH191997 -16.48 70.01 20 -1 -16.48 70.01 TC 20 15 294
1997 SI MM 18:00:00 TS -16.20 69.30 1297 1247 O___________O_ jtwc_sh SH191997 -16.20 69.30 20 -1 -16.20 69.30 TC 20 14 294
1997 SI MM 21:00:00 TS -15.90 68.64 1242 1199 P___________P_ SH191997 -15.90 68.64 20 -1 -15.90 68.64 TC 20 14 296
1997 SI MM 1997-02-09 00:00:00 TS -15.60 68.00 1199 1159 O___________O_ jtwc_sh SH191997 -15.60 68.00 20 -1 -15.60 68.00 TC 20 13 296
1997 SI MM 03:00:00 TS -15.31 67.39 1159 1120 P___________P_ SH191997 -15.31 67.39 20 -1 -15.31 67.39 TC 20 13 297
1997 SI MM 06:00:00 TS -15.00 66.80 1120 1085 O___________O_ jtwc_sh SH191997 -15.00 66.80 20 -1 -15.00 66.80 TC 20 13 299
1997 SI MM 09:00:00 TS -14.66 66.20 1085 1060 P___________P_ SH191997 -14.66 66.20 20 -1 -14.66 66.20 TC 20 14 301
1997 SI MM 12:00:00 TS -14.30 65.60 1060 1033 O___________O_ jtwc_sh SH191997 -14.30 65.60 20 -1 -14.30 65.60 TC 20 14 301
1997 SI MM 15:00:00 TS -13.94 64.99 1040 1017 P___________P_ SH191997 -13.94 64.99 20 -1 -13.94 64.99 TC 20 14 301
1997 SI MM 18:00:00 TS -13.60 64.40 1018 1005 O___________O_ jtwc_sh SH191997 -13.60 64.40 20 -1 -13.60 64.40 TC 20 13 301
1997 SI MM 21:00:00 TS -13.26 63.85 1007 993 P___________P_ SH191997 -13.26 63.85 20 -1 -13.26 63.85 TC 20 12 299
1997 SI MM 1997-02-10 00:00:00 TS -13.00 63.30 993 965 O___________O_ jtwc_sh SH191997 -13.00 63.30 20 -1 -13.00 63.30 TC 20 12 290
1997 SI MM 03:00:00 TS -12.85 62.70 965 942 P___________P_ SH191997 -12.85 62.70 20 -1 -12.85 62.70 TC 20 12 280
1997 SI MM 06:00:00 TS -12.80 62.10 942 916 O___________O_ jtwc_sh SH191997 -12.80 62.10 20 -1 -12.80 62.10 TC 20 11 274
1997 SI MM 09:00:00 TS -12.78 61.53 911 889 P___________P_ SH191997 -12.78 61.53 20 -1 -12.78 61.53 TC 20 11 270
1997 SI MM 12:00:00 TS -12.80 61.00 889 869 O___________O_ jtwc_sh SH191997 -12.80 61.00 20 -1 -12.80 61.00 TC 20 10 269
1997 SI MM 15:00:00 TS -12.80 60.52 869 856 P___________P_ SH191997 -12.80 60.52 20 -1 -12.80 60.52 TC 20 9 270
1997 SI MM 18:00:00 TS -12.80 60.10 856 847 O___________O_ jtwc_sh SH191997 -12.80 60.10 20 -1 -12.80 60.10 TC 20 8 271
1997 SI MM 21:00:00 TS -12.79 59.73 844 836 P___________P_ SH191997 -12.79 59.73 17 -1 -12.79 59.73 TC 17 7 270
1997 SI MM 1997-02-11 00:00:00 TS -12.80 59.40 836 830 O___________O_ jtwc_sh SH191997 -12.80 59.40 15 -1 -12.80 59.40 TC 15 7 266
1997 SI MM 03:00:00 TS -12.84 59.04 828 812 P___________P_ SH191997 -12.84 59.04 15 -1 -12.84 59.04 TC 15 7 262
1997 SI MM 06:00:00 TS -12.90 58.70 812 809 O___________O_ jtwc_sh SH191997 -12.90 58.70 15 -1 -12.90 58.70 TC 15 7 260
1997 SI MM 09:00:00 TS -12.95 58.38 809 795 P___________P_ SH191997 -12.95 58.38 15 -1 -12.95 58.38 TC 15 6 260
1997 SI MM 12:00:00 TS -13.00 58.10 795 794 O___________O_ jtwc_sh SH191997 -13.00 58.10 15 -1 -13.00 58.10 TC 15 5 259
1997 SI MM 15:00:00 TS -13.05 57.84 794 783 P___________P_ SH191997 -13.05 57.84 15 -1 -13.05 57.84 TC 15 5 258
1997 SI MM 18:00:00 TS -13.10 57.60 783 780 O___________O_ jtwc_sh SH191997 -13.10 57.60 15 -1 -13.10 57.60 TC 15 5 259
1997 SI MM 21:00:00 TS -13.14 57.35 770 746 P___________P_ SH191997 -13.14 57.35 15 -1 -13.14 57.35 TC 15 5 258
1997 SI MM 1997-02-12 00:00:00 TS -13.20 57.10 746 722 O___________O_ jtwc_sh SH191997 -13.20 57.10 15 -1 -13.20 57.10 TC 15 5 252
1997 SI MM 03:00:00 TS -13.30 56.85 722 687 P___________P_ SH191997 -13.30 56.85 15 -1 -13.30 56.85 TC 15 5 248
1997 SI MM 06:00:00 TS -13.40 56.60 687 667 O___________O_ jtwc_sh SH191997 -13.40 56.60 15 -1 -13.40 56.60 TC 15 5 253
1997 SI MM 09:00:00 TS -13.45 56.34 656 632 P___________P_ SH191997 -13.45 56.34 15 -1 -13.45 56.34 TC 15 5 258
1997 SI MM 12:00:00 TS -13.50 56.10 632 608 O___________O_ jtwc_sh SH191997 -13.50 56.10 15 -1 -13.50 56.10 TC 15 5 251
1997 SI MM 15:00:00 TS -13.60 55.89 608 584 P___________P_ SH191997 -13.60 55.89 15 -1 -13.60 55.89 TC 15 4 243
1997 SI MM 18:00:00 TS -13.70 55.70 584 560 O___________O_ jtwc_sh SH191997 -13.70 55.70 15 -1 -13.70 55.70 TC 15 4 248
1997 SI MM 21:00:00 TS -13.76 55.49 560 540 P___________P_ SH191997 -13.76 55.49 15 -1 -13.76 55.49 TC 15 4 256
1997 SI MM 1997-02-13 00:00:00 TS -13.80 55.30 540 526 O___________O_ jtwc_sh SH191997 -13.80 55.30 15 -1 -13.80 55.30 TC 15 4 254
1997 SI MM 03:00:00 TS -13.86 55.14 516 505 P___________P_ SH191997 -13.86 55.14 15 -1 -13.86 55.14 TC 15 3 251
1997 SI MM 06:00:00 TS -13.90 55.00 505 495 O___________O_ jtwc_sh SH191997 -13.90 55.00 15 -1 -13.90 55.00 TC 15 3 260
1997 SI MM 09:00:00 TS -13.91 54.84 485 475 P___________P_ SH191997 -13.91 54.84 15 -1 -13.91 54.84 TC 15 3 270
1997 SI MM 12:00:00 TS -13.90 54.70 475 464 O___________O_ jtwc_sh SH191997 -13.90 54.70 15 -1 -13.90 54.70 TC 15 2 272
1997 SI MM 15:00:00 TS -13.90 54.59 464 454 P___________P_ SH191997 -13.90 54.59 15 -1 -13.90 54.59 TC 15 2 270
1997 SI MM 18:00:00 TS -13.90 54.50 454 444 O___________O_ jtwc_sh SH191997 -13.90 54.50 15 -1 -13.90 54.50 TC 15 2 270
1997 SI MM 21:00:00 TS -13.90 54.40 444 434 P___________P_ SH191997 -13.90 54.40 15 -1 -13.90 54.40 TC 15 2 270
1997 SI MM 1997-02-14 00:00:00 TS -13.90 54.30 434 424 O___________O_ jtwc_sh SH191997 -13.90 54.30 15 -1 -13.90 54.30 TC 15 2 270
1997 SI MM 03:00:00 TS -13.90 54.20 424 414 P___________P_ SH191997 -13.90 54.20 15 -1 -13.90 54.20 TC 15 2 270
1997 SI MM 06:00:00 TS -13.90 54.10 414 403 O___________O_ jtwc_sh SH191997 -13.90 54.10 15 -1 -13.90 54.10 TC 15 2 270
1997 SI MM 09:00:00 TS -13.90 54.00 403 393 P___________P_ SH191997 -13.90 54.00 15 -1 -13.90 54.00 TC 15 2 270
1997 SI MM 12:00:00 TS -13.90 53.90 393 O___________O_ jtwc_sh SH191997 -13.90 53.90 15 -1 -13.90 53.90 TC 15 2 270